<?xml version='1.0' encoding='UTF-8'?>
<gpx version="1.1" creator="https://www.komoot.de" xmlns="http://www.topografix.com/GPX/1/1" xmlns:xsi="http://www.w3.org/2001/XMLSchema-instance" xsi:schemaLocation="http://www.topografix.com/GPX/1/1 http://www.topografix.com/GPX/1/1/gpx.xsd">
  <metadata>
    <name>W70 Esbeek</name>
    <author>
      <link href="https://www.komoot.de">
        <text>komoot</text>
        <type>text/html</type>
      </link>
    </author>
  </metadata>
  <trk>
    <name>W70 Esbeek</name>
    <trkseg>
      <trkpt lat="51.425555" lon="5.414687">
        <ele>21.174898</ele>
        <time>2024-07-19T19:33:50.140Z</time>
      </trkpt>
      <trkpt lat="51.425934" lon="5.414796">
        <ele>21.174898</ele>
        <time>2024-07-19T19:33:57.820Z</time>
      </trkpt>
      <trkpt lat="51.426079" lon="5.414642">
        <ele>21.174898</ele>
        <time>2024-07-19T19:34:01.250Z</time>
      </trkpt>
      <trkpt lat="51.426835" lon="5.414017">
        <ele>21.145298</ele>
        <time>2024-07-19T19:34:18.117Z</time>
      </trkpt>
      <trkpt lat="51.427448" lon="5.413494">
        <ele>21.105011</ele>
        <time>2024-07-19T19:34:31.631Z</time>
      </trkpt>
      <trkpt lat="51.427580" lon="5.413384">
        <ele>21.096380</ele>
        <time>2024-07-19T19:34:34.768Z</time>
      </trkpt>
      <trkpt lat="51.427630" lon="5.413346">
        <ele>21.093169</ele>
        <time>2024-07-19T19:34:35.594Z</time>
      </trkpt>
      <trkpt lat="51.427767" lon="5.413329">
        <ele>21.085197</ele>
        <time>2024-07-19T19:34:37.654Z</time>
      </trkpt>
      <trkpt lat="51.427929" lon="5.413206">
        <ele>21.074797</ele>
        <time>2024-07-19T19:34:40.547Z</time>
      </trkpt>
      <trkpt lat="51.428165" lon="5.412959">
        <ele>21.063572</ele>
        <time>2024-07-19T19:34:44.900Z</time>
      </trkpt>
      <trkpt lat="51.428242" lon="5.412879">
        <ele>21.060506</ele>
        <time>2024-07-19T19:34:46.295Z</time>
      </trkpt>
      <trkpt lat="51.428348" lon="5.412682">
        <ele>21.055083</ele>
        <time>2024-07-19T19:34:48.668Z</time>
      </trkpt>
      <trkpt lat="51.428442" lon="5.412509">
        <ele>21.050300</ele>
        <time>2024-07-19T19:34:50.898Z</time>
      </trkpt>
      <trkpt lat="51.428531" lon="5.412345">
        <ele>21.045769</ele>
        <time>2024-07-19T19:34:52.808Z</time>
      </trkpt>
      <trkpt lat="51.428451" lon="5.412231">
        <ele>21.042192</ele>
        <time>2024-07-19T19:34:54.349Z</time>
      </trkpt>
      <trkpt lat="51.428386" lon="5.412149">
        <ele>21.039428</ele>
        <time>2024-07-19T19:34:55.640Z</time>
      </trkpt>
      <trkpt lat="51.428306" lon="5.412046">
        <ele>21.035999</ele>
        <time>2024-07-19T19:34:57.118Z</time>
      </trkpt>
      <trkpt lat="51.428100" lon="5.411794">
        <ele>21.027339</ele>
        <time>2024-07-19T19:35:00.827Z</time>
      </trkpt>
      <trkpt lat="51.427924" lon="5.411596">
        <ele>21.020154</ele>
        <time>2024-07-19T19:35:03.850Z</time>
      </trkpt>
      <trkpt lat="51.427285" lon="5.410735">
        <ele>20.962111</ele>
        <time>2024-07-19T19:35:15.829Z</time>
      </trkpt>
      <trkpt lat="51.426575" lon="5.409651">
        <ele>20.874954</ele>
        <time>2024-07-19T19:35:29.996Z</time>
      </trkpt>
      <trkpt lat="51.426368" lon="5.409259">
        <ele>20.857652</ele>
        <time>2024-07-19T19:35:34.732Z</time>
      </trkpt>
      <trkpt lat="51.426016" lon="5.408593">
        <ele>20.943772</ele>
        <time>2024-07-19T19:35:43.191Z</time>
      </trkpt>
      <trkpt lat="51.425587" lon="5.407603">
        <ele>21.062693</ele>
        <time>2024-07-19T19:35:55.144Z</time>
      </trkpt>
      <trkpt lat="51.425135" lon="5.406294">
        <ele>21.140034</ele>
        <time>2024-07-19T19:36:09.328Z</time>
      </trkpt>
      <trkpt lat="51.425135" lon="5.406294">
        <ele>21.140034</ele>
        <time>2024-07-19T19:36:09.331Z</time>
      </trkpt>
      <trkpt lat="51.424988" lon="5.405775">
        <ele>21.143767</ele>
        <time>2024-07-19T19:36:14.570Z</time>
      </trkpt>
      <trkpt lat="51.424736" lon="5.404693">
        <ele>21.151331</ele>
        <time>2024-07-19T19:36:25.001Z</time>
      </trkpt>
      <trkpt lat="51.424735" lon="5.404553">
        <ele>21.152248</ele>
        <time>2024-07-19T19:36:26.203Z</time>
      </trkpt>
      <trkpt lat="51.424782" lon="5.404346">
        <ele>21.153691</ele>
        <time>2024-07-19T19:36:28.272Z</time>
      </trkpt>
      <trkpt lat="51.424732" lon="5.404263">
        <ele>21.155637</ele>
        <time>2024-07-19T19:36:29.380Z</time>
      </trkpt>
      <trkpt lat="51.424583" lon="5.404170">
        <ele>21.161174</ele>
        <time>2024-07-19T19:36:31.701Z</time>
      </trkpt>
      <trkpt lat="51.424517" lon="5.404097">
        <ele>21.163950</ele>
        <time>2024-07-19T19:36:32.926Z</time>
      </trkpt>
      <trkpt lat="51.424444" lon="5.403783">
        <ele>21.171187</ele>
        <time>2024-07-19T19:36:36.082Z</time>
      </trkpt>
      <trkpt lat="51.424444" lon="5.403610">
        <ele>21.174923</ele>
        <time>2024-07-19T19:36:37.579Z</time>
      </trkpt>
      <trkpt lat="51.424472" lon="5.403565">
        <ele>21.176295</ele>
        <time>2024-07-19T19:36:38.198Z</time>
      </trkpt>
      <trkpt lat="51.424532" lon="5.403315">
        <ele>21.182080</ele>
        <time>2024-07-19T19:36:40.702Z</time>
      </trkpt>
      <trkpt lat="51.424490" lon="5.403296">
        <ele>21.183591</ele>
        <time>2024-07-19T19:36:41.605Z</time>
      </trkpt>
      <trkpt lat="51.424375" lon="5.403206">
        <ele>21.188023</ele>
        <time>2024-07-19T19:36:44.112Z</time>
      </trkpt>
      <trkpt lat="51.424307" lon="5.403092">
        <ele>21.191430</ele>
        <time>2024-07-19T19:36:46.131Z</time>
      </trkpt>
      <trkpt lat="51.424232" lon="5.402752">
        <ele>21.199217</ele>
        <time>2024-07-19T19:36:50.652Z</time>
      </trkpt>
      <trkpt lat="51.424070" lon="5.402215">
        <ele>21.212099</ele>
        <time>2024-07-19T19:36:58.332Z</time>
      </trkpt>
      <trkpt lat="51.423840" lon="5.401504">
        <ele>21.276563</ele>
        <time>2024-07-19T19:37:08.778Z</time>
      </trkpt>
      <trkpt lat="51.423824" lon="5.401350">
        <ele>21.292002</ele>
        <time>2024-07-19T19:37:10.859Z</time>
      </trkpt>
      <trkpt lat="51.423564" lon="5.400213">
        <ele>21.411756</ele>
        <time>2024-07-19T19:37:26.664Z</time>
      </trkpt>
      <trkpt lat="51.422375" lon="5.395120">
        <ele>21.819916</ele>
        <time>2024-07-19T19:38:37.679Z</time>
      </trkpt>
      <trkpt lat="51.421953" lon="5.393060">
        <ele>21.712395</ele>
        <time>2024-07-19T19:39:03.768Z</time>
      </trkpt>
      <trkpt lat="51.421972" lon="5.393005">
        <ele>21.705049</ele>
        <time>2024-07-19T19:39:04.523Z</time>
      </trkpt>
      <trkpt lat="51.421996" lon="5.392810">
        <ele>21.681827</ele>
        <time>2024-07-19T19:39:06.904Z</time>
      </trkpt>
      <trkpt lat="51.421986" lon="5.392711">
        <ele>21.670110</ele>
        <time>2024-07-19T19:39:08.091Z</time>
      </trkpt>
      <trkpt lat="51.421937" lon="5.392559">
        <ele>21.650119</ele>
        <time>2024-07-19T19:39:10.110Z</time>
      </trkpt>
      <trkpt lat="51.421899" lon="5.392493">
        <ele>21.639624</ele>
        <time>2024-07-19T19:39:11.178Z</time>
      </trkpt>
      <trkpt lat="51.421579" lon="5.391247">
        <ele>21.485073</ele>
        <time>2024-07-19T19:39:27.696Z</time>
      </trkpt>
      <trkpt lat="51.421002" lon="5.387811">
        <ele>21.731689</ele>
        <time>2024-07-19T19:40:13.783Z</time>
      </trkpt>
      <trkpt lat="51.420353" lon="5.384317">
        <ele>22.291516</ele>
        <time>2024-07-19T19:41:01.682Z</time>
      </trkpt>
      <trkpt lat="51.420118" lon="5.383175">
        <ele>22.532238</ele>
        <time>2024-07-19T19:41:17.948Z</time>
      </trkpt>
      <trkpt lat="51.419447" lon="5.380662">
        <ele>23.256700</ele>
        <time>2024-07-19T19:41:55.412Z</time>
      </trkpt>
      <trkpt lat="51.418953" lon="5.378859">
        <ele>23.642436</ele>
        <time>2024-07-19T19:42:21.874Z</time>
      </trkpt>
      <trkpt lat="51.418934" lon="5.378706">
        <ele>23.670190</ele>
        <time>2024-07-19T19:42:24.011Z</time>
      </trkpt>
      <trkpt lat="51.418949" lon="5.378638">
        <ele>23.683022</ele>
        <time>2024-07-19T19:42:25.009Z</time>
      </trkpt>
      <trkpt lat="51.418941" lon="5.378450">
        <ele>23.716546</ele>
        <time>2024-07-19T19:42:27.577Z</time>
      </trkpt>
      <trkpt lat="51.418883" lon="5.378319">
        <ele>23.745128</ele>
        <time>2024-07-19T19:42:29.742Z</time>
      </trkpt>
      <trkpt lat="51.418792" lon="5.378251">
        <ele>23.773769</ele>
        <time>2024-07-19T19:42:31.881Z</time>
      </trkpt>
      <trkpt lat="51.418646" lon="5.377759">
        <ele>23.870704</ele>
        <time>2024-07-19T19:42:39.223Z</time>
      </trkpt>
      <trkpt lat="51.418572" lon="5.377103">
        <ele>23.823609</ele>
        <time>2024-07-19T19:42:47.605Z</time>
      </trkpt>
      <trkpt lat="51.418548" lon="5.376661">
        <ele>23.790252</ele>
        <time>2024-07-19T19:42:52.876Z</time>
      </trkpt>
      <trkpt lat="51.418488" lon="5.376503">
        <ele>23.776344</ele>
        <time>2024-07-19T19:42:54.979Z</time>
      </trkpt>
      <trkpt lat="51.418451" lon="5.376224">
        <ele>23.754898</ele>
        <time>2024-07-19T19:42:58.350Z</time>
      </trkpt>
      <trkpt lat="51.418511" lon="5.376116">
        <ele>23.744023</ele>
        <time>2024-07-19T19:43:00.036Z</time>
      </trkpt>
      <trkpt lat="51.418542" lon="5.375978">
        <ele>23.732995</ele>
        <time>2024-07-19T19:43:01.718Z</time>
      </trkpt>
      <trkpt lat="51.418543" lon="5.375882">
        <ele>23.725776</ele>
        <time>2024-07-19T19:43:02.871Z</time>
      </trkpt>
      <trkpt lat="51.418525" lon="5.375772">
        <ele>23.717226</ele>
        <time>2024-07-19T19:43:04.254Z</time>
      </trkpt>
      <trkpt lat="51.418465" lon="5.375623">
        <ele>23.703891</ele>
        <time>2024-07-19T19:43:06.491Z</time>
      </trkpt>
      <trkpt lat="51.418416" lon="5.375528">
        <ele>23.694622</ele>
        <time>2024-07-19T19:43:07.569Z</time>
      </trkpt>
      <trkpt lat="51.418180" lon="5.374365">
        <ele>23.658920</ele>
        <time>2024-07-19T19:43:19.229Z</time>
      </trkpt>
      <trkpt lat="51.418122" lon="5.373921">
        <ele>23.660797</ele>
        <time>2024-07-19T19:43:23.447Z</time>
      </trkpt>
      <trkpt lat="51.418101" lon="5.373541">
        <ele>23.662376</ele>
        <time>2024-07-19T19:43:26.841Z</time>
      </trkpt>
      <trkpt lat="51.418126" lon="5.372740">
        <ele>23.665694</ele>
        <time>2024-07-19T19:43:33.983Z</time>
      </trkpt>
      <trkpt lat="51.418147" lon="5.372356">
        <ele>23.667289</ele>
        <time>2024-07-19T19:43:37.621Z</time>
      </trkpt>
      <trkpt lat="51.418142" lon="5.371883">
        <ele>23.617723</ele>
        <time>2024-07-19T19:43:42.286Z</time>
      </trkpt>
      <trkpt lat="51.418059" lon="5.371227">
        <ele>23.512942</ele>
        <time>2024-07-19T19:43:49.009Z</time>
      </trkpt>
      <trkpt lat="51.417944" lon="5.370749">
        <ele>23.432742</ele>
        <time>2024-07-19T19:43:53.460Z</time>
      </trkpt>
      <trkpt lat="51.417715" lon="5.370178">
        <ele>23.326471</ele>
        <time>2024-07-19T19:43:58.453Z</time>
      </trkpt>
      <trkpt lat="51.417599" lon="5.369979">
        <ele>23.283830</ele>
        <time>2024-07-19T19:44:00.494Z</time>
      </trkpt>
      <trkpt lat="51.417509" lon="5.369839">
        <ele>23.252356</ele>
        <time>2024-07-19T19:44:02.625Z</time>
      </trkpt>
      <trkpt lat="51.417295" lon="5.369499">
        <ele>23.243650</ele>
        <time>2024-07-19T19:44:07.177Z</time>
      </trkpt>
      <trkpt lat="51.417139" lon="5.369168">
        <ele>23.288154</ele>
        <time>2024-07-19T19:44:11.168Z</time>
      </trkpt>
      <trkpt lat="51.416907" lon="5.368407">
        <ele>23.379017</ele>
        <time>2024-07-19T19:44:20.088Z</time>
      </trkpt>
      <trkpt lat="51.416943" lon="5.368278">
        <ele>23.394177</ele>
        <time>2024-07-19T19:44:21.376Z</time>
      </trkpt>
      <trkpt lat="51.416953" lon="5.368137">
        <ele>23.409399</ele>
        <time>2024-07-19T19:44:22.583Z</time>
      </trkpt>
      <trkpt lat="51.416936" lon="5.367997">
        <ele>23.424699</ele>
        <time>2024-07-19T19:44:24.069Z</time>
      </trkpt>
      <trkpt lat="51.416909" lon="5.367920">
        <ele>23.434174</ele>
        <time>2024-07-19T19:44:25.137Z</time>
      </trkpt>
      <trkpt lat="51.416856" lon="5.367814">
        <ele>23.448748</ele>
        <time>2024-07-19T19:44:26.602Z</time>
      </trkpt>
      <trkpt lat="51.416707" lon="5.367699">
        <ele>23.477190</ele>
        <time>2024-07-19T19:44:28.879Z</time>
      </trkpt>
      <trkpt lat="51.416699" lon="5.367626">
        <ele>23.485141</ele>
        <time>2024-07-19T19:44:29.595Z</time>
      </trkpt>
      <trkpt lat="51.416631" lon="5.367346">
        <ele>23.517373</ele>
        <time>2024-07-19T19:44:32.526Z</time>
      </trkpt>
      <trkpt lat="51.416550" lon="5.367077">
        <ele>23.533757</ele>
        <time>2024-07-19T19:44:35.205Z</time>
      </trkpt>
      <trkpt lat="51.416534" lon="5.366748">
        <ele>23.545673</ele>
        <time>2024-07-19T19:44:38.486Z</time>
      </trkpt>
      <trkpt lat="51.416481" lon="5.366342">
        <ele>23.560651</ele>
        <time>2024-07-19T19:44:43.089Z</time>
      </trkpt>
      <trkpt lat="51.416475" lon="5.366033">
        <ele>23.571814</ele>
        <time>2024-07-19T19:44:46.354Z</time>
      </trkpt>
      <trkpt lat="51.416533" lon="5.365092">
        <ele>23.605957</ele>
        <time>2024-07-19T19:44:55.920Z</time>
      </trkpt>
      <trkpt lat="51.416622" lon="5.364513">
        <ele>23.627490</ele>
        <time>2024-07-19T19:45:00.609Z</time>
      </trkpt>
      <trkpt lat="51.416802" lon="5.363768">
        <ele>23.465617</ele>
        <time>2024-07-19T19:45:06.918Z</time>
      </trkpt>
      <trkpt lat="51.416980" lon="5.363263">
        <ele>23.335182</ele>
        <time>2024-07-19T19:45:11.632Z</time>
      </trkpt>
      <trkpt lat="51.417228" lon="5.362703">
        <ele>23.180744</ele>
        <time>2024-07-19T19:45:17.387Z</time>
      </trkpt>
      <trkpt lat="51.417753" lon="5.361760">
        <ele>22.997552</ele>
        <time>2024-07-19T19:45:29.052Z</time>
      </trkpt>
      <trkpt lat="51.417912" lon="5.361739">
        <ele>23.008460</ele>
        <time>2024-07-19T19:45:32.359Z</time>
      </trkpt>
      <trkpt lat="51.417969" lon="5.361696">
        <ele>23.012767</ele>
        <time>2024-07-19T19:45:33.628Z</time>
      </trkpt>
      <trkpt lat="51.417985" lon="5.361671">
        <ele>23.014295</ele>
        <time>2024-07-19T19:45:34.091Z</time>
      </trkpt>
      <trkpt lat="51.418023" lon="5.361581">
        <ele>23.018929</ele>
        <time>2024-07-19T19:45:35.525Z</time>
      </trkpt>
      <trkpt lat="51.418057" lon="5.361492">
        <ele>23.023380</ele>
        <time>2024-07-19T19:45:36.912Z</time>
      </trkpt>
      <trkpt lat="51.418059" lon="5.361318">
        <ele>23.030800</ele>
        <time>2024-07-19T19:45:39.160Z</time>
      </trkpt>
      <trkpt lat="51.418046" lon="5.361217">
        <ele>23.035198</ele>
        <time>2024-07-19T19:45:40.448Z</time>
      </trkpt>
      <trkpt lat="51.418009" lon="5.361142">
        <ele>23.039276</ele>
        <time>2024-07-19T19:45:41.649Z</time>
      </trkpt>
      <trkpt lat="51.417949" lon="5.361056">
        <ele>23.044778</ele>
        <time>2024-07-19T19:45:43.334Z</time>
      </trkpt>
      <trkpt lat="51.417889" lon="5.361006">
        <ele>23.049402</ele>
        <time>2024-07-19T19:45:44.751Z</time>
      </trkpt>
      <trkpt lat="51.417732" lon="5.361006">
        <ele>23.060137</ele>
        <time>2024-07-19T19:45:47.920Z</time>
      </trkpt>
      <trkpt lat="51.417377" lon="5.360702">
        <ele>23.087654</ele>
        <time>2024-07-19T19:45:56.113Z</time>
      </trkpt>
      <trkpt lat="51.417300" lon="5.360530">
        <ele>23.096683</ele>
        <time>2024-07-19T19:45:58.871Z</time>
      </trkpt>
      <trkpt lat="51.416810" lon="5.359190">
        <ele>23.256375</ele>
        <time>2024-07-19T19:46:19.130Z</time>
      </trkpt>
      <trkpt lat="51.416555" lon="5.358587">
        <ele>23.337077</ele>
        <time>2024-07-19T19:46:28.806Z</time>
      </trkpt>
      <trkpt lat="51.416297" lon="5.358213">
        <ele>23.398852</ele>
        <time>2024-07-19T19:46:34.117Z</time>
      </trkpt>
      <trkpt lat="51.416050" lon="5.358101">
        <ele>23.443462</ele>
        <time>2024-07-19T19:46:38.041Z</time>
      </trkpt>
      <trkpt lat="51.415288" lon="5.358240">
        <ele>23.573172</ele>
        <time>2024-07-19T19:46:50.015Z</time>
      </trkpt>
      <trkpt lat="51.415390" lon="5.357652">
        <ele>23.637550</ele>
        <time>2024-07-19T19:46:56.231Z</time>
      </trkpt>
      <trkpt lat="51.415388" lon="5.356552">
        <ele>23.706344</ele>
        <time>2024-07-19T19:47:06.665Z</time>
      </trkpt>
      <trkpt lat="51.415390" lon="5.356072">
        <ele>23.663114</ele>
        <time>2024-07-19T19:47:10.941Z</time>
      </trkpt>
      <trkpt lat="51.415434" lon="5.355676">
        <ele>23.626889</ele>
        <time>2024-07-19T19:47:14.498Z</time>
      </trkpt>
      <trkpt lat="51.415516" lon="5.355344">
        <ele>23.594730</ele>
        <time>2024-07-19T19:47:17.575Z</time>
      </trkpt>
      <trkpt lat="51.415892" lon="5.354141">
        <ele>23.473545</ele>
        <time>2024-07-19T19:47:29.430Z</time>
      </trkpt>
      <trkpt lat="51.415955" lon="5.353860">
        <ele>23.450550</ele>
        <time>2024-07-19T19:47:32.086Z</time>
      </trkpt>
      <trkpt lat="51.415965" lon="5.353674">
        <ele>23.436753</ele>
        <time>2024-07-19T19:47:33.770Z</time>
      </trkpt>
      <trkpt lat="51.415850" lon="5.352700">
        <ele>23.363495</ele>
        <time>2024-07-19T19:47:42.552Z</time>
      </trkpt>
      <trkpt lat="51.415680" lon="5.351680">
        <ele>23.285471</ele>
        <time>2024-07-19T19:47:52.039Z</time>
      </trkpt>
      <trkpt lat="51.415482" lon="5.350414">
        <ele>23.125639</ele>
        <time>2024-07-19T19:48:08.354Z</time>
      </trkpt>
      <trkpt lat="51.415450" lon="5.350200">
        <ele>23.093813</ele>
        <time>2024-07-19T19:48:11.041Z</time>
      </trkpt>
      <trkpt lat="51.414980" lon="5.348650">
        <ele>22.844555</ele>
        <time>2024-07-19T19:48:31.663Z</time>
      </trkpt>
      <trkpt lat="51.414850" lon="5.347740">
        <ele>22.699406</ele>
        <time>2024-07-19T19:48:42.436Z</time>
      </trkpt>
      <trkpt lat="51.414760" lon="5.347460">
        <ele>22.650260</ele>
        <time>2024-07-19T19:48:46.094Z</time>
      </trkpt>
      <trkpt lat="51.414350" lon="5.346800">
        <ele>22.504922</ele>
        <time>2024-07-19T19:48:57.302Z</time>
      </trkpt>
      <trkpt lat="51.414266" lon="5.346571">
        <ele>22.463472</ele>
        <time>2024-07-19T19:49:00.514Z</time>
      </trkpt>
      <trkpt lat="51.413770" lon="5.344160">
        <ele>22.547957</ele>
        <time>2024-07-19T19:49:33.234Z</time>
      </trkpt>
      <trkpt lat="51.413550" lon="5.339610">
        <ele>23.017896</ele>
        <time>2024-07-19T19:50:33.055Z</time>
      </trkpt>
      <trkpt lat="51.413380" lon="5.336790">
        <ele>23.174598</ele>
        <time>2024-07-19T19:51:08.995Z</time>
      </trkpt>
      <trkpt lat="51.413105" lon="5.334220">
        <ele>23.428534</ele>
        <time>2024-07-19T19:51:42.940Z</time>
      </trkpt>
      <trkpt lat="51.412600" lon="5.329500">
        <ele>24.165642</ele>
        <time>2024-07-19T19:52:46.458Z</time>
      </trkpt>
      <trkpt lat="51.409532" lon="5.329655">
        <ele>24.516316</ele>
        <time>2024-07-19T19:53:50.806Z</time>
      </trkpt>
      <trkpt lat="51.409750" lon="5.333510">
        <ele>24.179814</ele>
        <time>2024-07-19T19:54:37.182Z</time>
      </trkpt>
      <trkpt lat="51.409719" lon="5.334132">
        <ele>24.182754</ele>
        <time>2024-07-19T19:54:45.056Z</time>
      </trkpt>
      <trkpt lat="51.409637" lon="5.334738">
        <ele>24.265396</ele>
        <time>2024-07-19T19:54:53.087Z</time>
      </trkpt>
      <trkpt lat="51.409237" lon="5.334623">
        <ele>24.352225</ele>
        <time>2024-07-19T19:55:01.744Z</time>
      </trkpt>
      <trkpt lat="51.409048" lon="5.334652">
        <ele>24.392792</ele>
        <time>2024-07-19T19:55:05.856Z</time>
      </trkpt>
      <trkpt lat="51.407720" lon="5.335100">
        <ele>24.715277</ele>
        <time>2024-07-19T19:55:35.255Z</time>
      </trkpt>
      <trkpt lat="51.407380" lon="5.335130">
        <ele>24.803083</ele>
        <time>2024-07-19T19:55:42.568Z</time>
      </trkpt>
      <trkpt lat="51.405020" lon="5.334560">
        <ele>25.173134</ele>
        <time>2024-07-19T19:56:32.211Z</time>
      </trkpt>
      <trkpt lat="51.404550" lon="5.334470">
        <ele>25.243054</ele>
        <time>2024-07-19T19:56:41.795Z</time>
      </trkpt>
      <trkpt lat="51.403515" lon="5.334371">
        <ele>25.411510</ele>
        <time>2024-07-19T19:57:03.113Z</time>
      </trkpt>
      <trkpt lat="51.399611" lon="5.333962">
        <ele>26.749686</ele>
        <time>2024-07-19T19:58:28.150Z</time>
      </trkpt>
      <trkpt lat="51.399603" lon="5.334123">
        <ele>26.785321</ele>
        <time>2024-07-19T19:58:29.701Z</time>
      </trkpt>
      <trkpt lat="51.399543" lon="5.334421">
        <ele>26.808874</ele>
        <time>2024-07-19T19:58:32.741Z</time>
      </trkpt>
      <trkpt lat="51.399448" lon="5.336760">
        <ele>26.972703</ele>
        <time>2024-07-19T19:58:55.078Z</time>
      </trkpt>
      <trkpt lat="51.399362" lon="5.338445">
        <ele>26.994060</ele>
        <time>2024-07-19T19:59:10.740Z</time>
      </trkpt>
      <trkpt lat="51.399337" lon="5.338487">
        <ele>26.994252</ele>
        <time>2024-07-19T19:59:11.296Z</time>
      </trkpt>
      <trkpt lat="51.399304" lon="5.338486">
        <ele>26.994426</ele>
        <time>2024-07-19T19:59:11.821Z</time>
      </trkpt>
      <trkpt lat="51.399250" lon="5.338502">
        <ele>26.994717</ele>
        <time>2024-07-19T19:59:12.617Z</time>
      </trkpt>
      <trkpt lat="51.399232" lon="5.338692">
        <ele>26.995351</ele>
        <time>2024-07-19T19:59:14.408Z</time>
      </trkpt>
      <trkpt lat="51.398865" lon="5.338779">
        <ele>26.997313</ele>
        <time>2024-07-19T19:59:21.843Z</time>
      </trkpt>
      <trkpt lat="51.398710" lon="5.338730">
        <ele>26.998148</ele>
        <time>2024-07-19T19:59:25.024Z</time>
      </trkpt>
      <trkpt lat="51.398494" lon="5.338492">
        <ele>26.993038</ele>
        <time>2024-07-19T19:59:30.262Z</time>
      </trkpt>
      <trkpt lat="51.397973" lon="5.338000">
        <ele>26.968844</ele>
        <time>2024-07-19T19:59:42.414Z</time>
      </trkpt>
      <trkpt lat="51.397506" lon="5.337635">
        <ele>26.948056</ele>
        <time>2024-07-19T19:59:52.716Z</time>
      </trkpt>
      <trkpt lat="51.397069" lon="5.337218">
        <ele>26.927707</ele>
        <time>2024-07-19T20:00:03.026Z</time>
      </trkpt>
      <trkpt lat="51.396139" lon="5.335983">
        <ele>26.972427</ele>
        <time>2024-07-19T20:00:27.492Z</time>
      </trkpt>
      <trkpt lat="51.395697" lon="5.335343">
        <ele>26.995349</ele>
        <time>2024-07-19T20:00:39.683Z</time>
      </trkpt>
      <trkpt lat="51.395280" lon="5.334400">
        <ele>26.907272</ele>
        <time>2024-07-19T20:00:54.233Z</time>
      </trkpt>
      <trkpt lat="51.395005" lon="5.333712">
        <ele>26.842960</ele>
        <time>2024-07-19T20:01:04.384Z</time>
      </trkpt>
      <trkpt lat="51.394216" lon="5.331953">
        <ele>26.586928</ele>
        <time>2024-07-19T20:01:30.401Z</time>
      </trkpt>
      <trkpt lat="51.393899" lon="5.330910">
        <ele>26.414840</ele>
        <time>2024-07-19T20:01:44.218Z</time>
      </trkpt>
      <trkpt lat="51.393708" lon="5.330493">
        <ele>26.342766</ele>
        <time>2024-07-19T20:01:50.481Z</time>
      </trkpt>
      <trkpt lat="51.393365" lon="5.330013">
        <ele>26.381280</ele>
        <time>2024-07-19T20:01:59.499Z</time>
      </trkpt>
      <trkpt lat="51.392402" lon="5.329201">
        <ele>26.473313</ele>
        <time>2024-07-19T20:02:22.222Z</time>
      </trkpt>
      <trkpt lat="51.391637" lon="5.328368">
        <ele>26.656402</ele>
        <time>2024-07-19T20:02:42.199Z</time>
      </trkpt>
      <trkpt lat="51.390863" lon="5.327597">
        <ele>26.873158</ele>
        <time>2024-07-19T20:03:01.482Z</time>
      </trkpt>
      <trkpt lat="51.390381" lon="5.327260">
        <ele>26.947908</ele>
        <time>2024-07-19T20:03:12.352Z</time>
      </trkpt>
      <trkpt lat="51.390767" lon="5.323923">
        <ele>27.079947</ele>
        <time>2024-07-19T20:03:55.390Z</time>
      </trkpt>
      <trkpt lat="51.391011" lon="5.321810">
        <ele>27.095597</ele>
        <time>2024-07-19T20:04:22.834Z</time>
      </trkpt>
      <trkpt lat="51.391242" lon="5.319479">
        <ele>27.060398</ele>
        <time>2024-07-19T20:04:52.512Z</time>
      </trkpt>
      <trkpt lat="51.391787" lon="5.313932">
        <ele>26.645520</ele>
        <time>2024-07-19T20:06:01.302Z</time>
      </trkpt>
      <trkpt lat="51.391836" lon="5.313592">
        <ele>26.620788</ele>
        <time>2024-07-19T20:06:05.694Z</time>
      </trkpt>
      <trkpt lat="51.391903" lon="5.313404">
        <ele>26.620005</ele>
        <time>2024-07-19T20:06:08.380Z</time>
      </trkpt>
      <trkpt lat="51.391985" lon="5.313269">
        <ele>26.621183</ele>
        <time>2024-07-19T20:06:10.780Z</time>
      </trkpt>
      <trkpt lat="51.392055" lon="5.313207">
        <ele>26.621984</ele>
        <time>2024-07-19T20:06:12.391Z</time>
      </trkpt>
      <trkpt lat="51.392222" lon="5.313135">
        <ele>26.623716</ele>
        <time>2024-07-19T20:06:15.869Z</time>
      </trkpt>
      <trkpt lat="51.395771" lon="5.313505">
        <ele>26.666584</ele>
        <time>2024-07-19T20:07:28.503Z</time>
      </trkpt>
      <trkpt lat="51.396145" lon="5.308205">
        <ele>26.489582</ele>
        <time>2024-07-19T20:08:17.022Z</time>
      </trkpt>
      <trkpt lat="51.396145" lon="5.307628">
        <ele>26.444581</ele>
        <time>2024-07-19T20:08:22.174Z</time>
      </trkpt>
      <trkpt lat="51.396049" lon="5.306095">
        <ele>26.324421</ele>
        <time>2024-07-19T20:08:35.756Z</time>
      </trkpt>
      <trkpt lat="51.395890" lon="5.304220">
        <ele>26.285363</ele>
        <time>2024-07-19T20:08:52.850Z</time>
      </trkpt>
      <trkpt lat="51.395679" lon="5.300721">
        <ele>26.427908</ele>
        <time>2024-07-19T20:09:26.281Z</time>
      </trkpt>
      <trkpt lat="51.395618" lon="5.300121">
        <ele>26.470790</ele>
        <time>2024-07-19T20:09:32.090Z</time>
      </trkpt>
      <trkpt lat="51.395461" lon="5.299230">
        <ele>26.509104</ele>
        <time>2024-07-19T20:09:40.993Z</time>
      </trkpt>
      <trkpt lat="51.395491" lon="5.299018">
        <ele>26.516011</ele>
        <time>2024-07-19T20:09:43.055Z</time>
      </trkpt>
      <trkpt lat="51.395485" lon="5.298862">
        <ele>26.520976</ele>
        <time>2024-07-19T20:09:44.498Z</time>
      </trkpt>
      <trkpt lat="51.395451" lon="5.298747">
        <ele>26.525020</ele>
        <time>2024-07-19T20:09:45.715Z</time>
      </trkpt>
      <trkpt lat="51.395373" lon="5.298775">
        <ele>26.529090</ele>
        <time>2024-07-19T20:09:47.368Z</time>
      </trkpt>
      <trkpt lat="51.395297" lon="5.298851">
        <ele>26.533651</ele>
        <time>2024-07-19T20:09:49.191Z</time>
      </trkpt>
      <trkpt lat="51.395203" lon="5.298275">
        <ele>26.552567</ele>
        <time>2024-07-19T20:09:56.716Z</time>
      </trkpt>
      <trkpt lat="51.395183" lon="5.297615">
        <ele>26.573561</ele>
        <time>2024-07-19T20:10:04.973Z</time>
      </trkpt>
      <trkpt lat="51.395266" lon="5.295550">
        <ele>26.446047</ele>
        <time>2024-07-19T20:10:30.855Z</time>
      </trkpt>
      <trkpt lat="51.395260" lon="5.294112">
        <ele>26.351815</ele>
        <time>2024-07-19T20:10:48.373Z</time>
      </trkpt>
      <trkpt lat="51.395169" lon="5.291194">
        <ele>26.167977</ele>
        <time>2024-07-19T20:11:24.684Z</time>
      </trkpt>
      <trkpt lat="51.395101" lon="5.289670">
        <ele>26.033286</ele>
        <time>2024-07-19T20:11:43.726Z</time>
      </trkpt>
      <trkpt lat="51.395061" lon="5.289392">
        <ele>26.008136</ele>
        <time>2024-07-19T20:11:47.227Z</time>
      </trkpt>
      <trkpt lat="51.395149" lon="5.289388">
        <ele>25.995698</ele>
        <time>2024-07-19T20:11:48.966Z</time>
      </trkpt>
      <trkpt lat="51.395138" lon="5.289169">
        <ele>25.976329</ele>
        <time>2024-07-19T20:11:50.868Z</time>
      </trkpt>
      <trkpt lat="51.395149" lon="5.289388">
        <ele>25.953565</ele>
        <time>2024-07-19T20:11:52.813Z</time>
      </trkpt>
      <trkpt lat="51.395061" lon="5.289392">
        <ele>25.912864</ele>
        <time>2024-07-19T20:11:54.532Z</time>
      </trkpt>
      <trkpt lat="51.394883" lon="5.286000">
        <ele>24.967637</ele>
        <time>2024-07-19T20:12:33.875Z</time>
      </trkpt>
      <trkpt lat="51.394613" lon="5.284459">
        <ele>24.592378</ele>
        <time>2024-07-19T20:12:52.540Z</time>
      </trkpt>
      <trkpt lat="51.394611" lon="5.284445">
        <ele>24.589010</ele>
        <time>2024-07-19T20:12:52.715Z</time>
      </trkpt>
      <trkpt lat="51.394589" lon="5.284321">
        <ele>24.558786</ele>
        <time>2024-07-19T20:12:54.287Z</time>
      </trkpt>
      <trkpt lat="51.394423" lon="5.283533">
        <ele>24.450755</ele>
        <time>2024-07-19T20:13:04.325Z</time>
      </trkpt>
      <trkpt lat="51.394346" lon="5.283018">
        <ele>24.450307</ele>
        <time>2024-07-19T20:13:10.836Z</time>
      </trkpt>
      <trkpt lat="51.394337" lon="5.282814">
        <ele>24.450133</ele>
        <time>2024-07-19T20:13:13.410Z</time>
      </trkpt>
      <trkpt lat="51.394275" lon="5.282579">
        <ele>24.449917</ele>
        <time>2024-07-19T20:13:16.646Z</time>
      </trkpt>
      <trkpt lat="51.394192" lon="5.282391">
        <ele>24.449722</ele>
        <time>2024-07-19T20:13:19.561Z</time>
      </trkpt>
      <trkpt lat="51.393532" lon="5.280004">
        <ele>24.558936</ele>
        <time>2024-07-19T20:13:53.633Z</time>
      </trkpt>
      <trkpt lat="51.393121" lon="5.278420">
        <ele>24.700952</ele>
        <time>2024-07-19T20:14:15.603Z</time>
      </trkpt>
      <trkpt lat="51.393034" lon="5.278040">
        <ele>24.731231</ele>
        <time>2024-07-19T20:14:20.818Z</time>
      </trkpt>
      <trkpt lat="51.393017" lon="5.277820">
        <ele>24.747814</ele>
        <time>2024-07-19T20:14:23.675Z</time>
      </trkpt>
      <trkpt lat="51.392927" lon="5.277397">
        <ele>24.781247</ele>
        <time>2024-07-19T20:14:29.474Z</time>
      </trkpt>
      <trkpt lat="51.392973" lon="5.276372">
        <ele>24.858121</ele>
        <time>2024-07-19T20:14:42.778Z</time>
      </trkpt>
      <trkpt lat="51.393045" lon="5.275798">
        <ele>24.901919</ele>
        <time>2024-07-19T20:14:50.381Z</time>
      </trkpt>
      <trkpt lat="51.393315" lon="5.274873">
        <ele>25.106792</ele>
        <time>2024-07-19T20:15:03.670Z</time>
      </trkpt>
      <trkpt lat="51.394006" lon="5.272858">
        <ele>25.609299</ele>
        <time>2024-07-19T20:15:34.919Z</time>
      </trkpt>
      <trkpt lat="51.394022" lon="5.272731">
        <ele>25.645358</ele>
        <time>2024-07-19T20:15:36.669Z</time>
      </trkpt>
      <trkpt lat="51.394220" lon="5.272236">
        <ele>25.809002</ele>
        <time>2024-07-19T20:15:44.746Z</time>
      </trkpt>
      <trkpt lat="51.394324" lon="5.272131">
        <ele>25.863828</ele>
        <time>2024-07-19T20:15:47.654Z</time>
      </trkpt>
      <trkpt lat="51.394421" lon="5.271786">
        <ele>25.969144</ele>
        <time>2024-07-19T20:15:51.509Z</time>
      </trkpt>
      <trkpt lat="51.394527" lon="5.271236">
        <ele>26.129351</ele>
        <time>2024-07-19T20:15:57.700Z</time>
      </trkpt>
      <trkpt lat="51.394657" lon="5.270290">
        <ele>26.357728</ele>
        <time>2024-07-19T20:16:07.669Z</time>
      </trkpt>
      <trkpt lat="51.394840" lon="5.269039">
        <ele>26.563760</ele>
        <time>2024-07-19T20:16:20.190Z</time>
      </trkpt>
      <trkpt lat="51.394947" lon="5.268143">
        <ele>26.710037</ele>
        <time>2024-07-19T20:16:29.281Z</time>
      </trkpt>
      <trkpt lat="51.394898" lon="5.267873">
        <ele>26.755124</ele>
        <time>2024-07-19T20:16:32.051Z</time>
      </trkpt>
      <trkpt lat="51.394927" lon="5.267763">
        <ele>26.764887</ele>
        <time>2024-07-19T20:16:33.225Z</time>
      </trkpt>
      <trkpt lat="51.395056" lon="5.267513">
        <ele>26.769703</ele>
        <time>2024-07-19T20:16:36.368Z</time>
      </trkpt>
      <trkpt lat="51.395208" lon="5.267296">
        <ele>26.774546</ele>
        <time>2024-07-19T20:16:39.461Z</time>
      </trkpt>
      <trkpt lat="51.395240" lon="5.267252">
        <ele>26.775549</ele>
        <time>2024-07-19T20:16:40.097Z</time>
      </trkpt>
      <trkpt lat="51.395376" lon="5.267123">
        <ele>26.779308</ele>
        <time>2024-07-19T20:16:42.417Z</time>
      </trkpt>
      <trkpt lat="51.395582" lon="5.267090">
        <ele>26.784234</ele>
        <time>2024-07-19T20:16:45.470Z</time>
      </trkpt>
      <trkpt lat="51.395891" lon="5.267262">
        <ele>26.792016</ele>
        <time>2024-07-19T20:16:50.267Z</time>
      </trkpt>
      <trkpt lat="51.396650" lon="5.267813">
        <ele>26.782379</ele>
        <time>2024-07-19T20:17:02.623Z</time>
      </trkpt>
      <trkpt lat="51.396999" lon="5.267910">
        <ele>26.742302</ele>
        <time>2024-07-19T20:17:07.870Z</time>
      </trkpt>
      <trkpt lat="51.397186" lon="5.267880">
        <ele>26.721038</ele>
        <time>2024-07-19T20:17:10.611Z</time>
      </trkpt>
      <trkpt lat="51.397413" lon="5.267657">
        <ele>26.690914</ele>
        <time>2024-07-19T20:17:14.350Z</time>
      </trkpt>
      <trkpt lat="51.397687" lon="5.267326">
        <ele>26.652093</ele>
        <time>2024-07-19T20:17:19.144Z</time>
      </trkpt>
      <trkpt lat="51.397918" lon="5.266987">
        <ele>26.616656</ele>
        <time>2024-07-19T20:17:23.524Z</time>
      </trkpt>
      <trkpt lat="51.398190" lon="5.266520">
        <ele>26.570772</ele>
        <time>2024-07-19T20:17:29.146Z</time>
      </trkpt>
      <trkpt lat="51.398432" lon="5.266102">
        <ele>26.529520</ele>
        <time>2024-07-19T20:17:34.227Z</time>
      </trkpt>
      <trkpt lat="51.399000" lon="5.265180">
        <ele>26.435785</ele>
        <time>2024-07-19T20:17:45.991Z</time>
      </trkpt>
      <trkpt lat="51.399130" lon="5.265010">
        <ele>26.416331</ele>
        <time>2024-07-19T20:17:48.428Z</time>
      </trkpt>
      <trkpt lat="51.399267" lon="5.264884">
        <ele>26.398017</ele>
        <time>2024-07-19T20:17:50.815Z</time>
      </trkpt>
      <trkpt lat="51.399541" lon="5.264741">
        <ele>26.355683</ele>
        <time>2024-07-19T20:17:54.948Z</time>
      </trkpt>
      <trkpt lat="51.399698" lon="5.264689">
        <ele>26.331576</ele>
        <time>2024-07-19T20:17:57.224Z</time>
      </trkpt>
      <trkpt lat="51.400097" lon="5.264746">
        <ele>26.271341</ele>
        <time>2024-07-19T20:18:02.897Z</time>
      </trkpt>
      <trkpt lat="51.400351" lon="5.264791">
        <ele>26.232915</ele>
        <time>2024-07-19T20:18:06.584Z</time>
      </trkpt>
      <trkpt lat="51.400482" lon="5.264907">
        <ele>26.210411</ele>
        <time>2024-07-19T20:18:08.674Z</time>
      </trkpt>
      <trkpt lat="51.400575" lon="5.264667">
        <ele>26.183907</ele>
        <time>2024-07-19T20:18:12.256Z</time>
      </trkpt>
      <trkpt lat="51.401620" lon="5.264700">
        <ele>25.999850</ele>
        <time>2024-07-19T20:18:32.726Z</time>
      </trkpt>
      <trkpt lat="51.402560" lon="5.264590">
        <ele>25.819024</ele>
        <time>2024-07-19T20:18:51.003Z</time>
      </trkpt>
      <trkpt lat="51.403270" lon="5.264550">
        <ele>25.752426</ele>
        <time>2024-07-19T20:19:04.837Z</time>
      </trkpt>
      <trkpt lat="51.403868" lon="5.264423">
        <ele>25.720381</ele>
        <time>2024-07-19T20:19:16.782Z</time>
      </trkpt>
      <trkpt lat="51.404331" lon="5.264277">
        <ele>25.695314</ele>
        <time>2024-07-19T20:19:26.370Z</time>
      </trkpt>
      <trkpt lat="51.404597" lon="5.264155">
        <ele>25.699549</ele>
        <time>2024-07-19T20:19:32.081Z</time>
      </trkpt>
      <trkpt lat="51.404827" lon="5.263981">
        <ele>25.772697</ele>
        <time>2024-07-19T20:19:37.375Z</time>
      </trkpt>
      <trkpt lat="51.405110" lon="5.263569">
        <ele>25.882650</ele>
        <time>2024-07-19T20:19:45.465Z</time>
      </trkpt>
      <trkpt lat="51.405257" lon="5.263254">
        <ele>25.953231</ele>
        <time>2024-07-19T20:19:50.748Z</time>
      </trkpt>
      <trkpt lat="51.405394" lon="5.262879">
        <ele>26.031202</ele>
        <time>2024-07-19T20:19:56.588Z</time>
      </trkpt>
      <trkpt lat="51.406021" lon="5.261385">
        <ele>26.304370</ele>
        <time>2024-07-19T20:20:20.947Z</time>
      </trkpt>
      <trkpt lat="51.407919" lon="5.258698">
        <ele>26.652487</ele>
        <time>2024-07-19T20:21:13.488Z</time>
      </trkpt>
      <trkpt lat="51.408124" lon="5.258431">
        <ele>26.673873</ele>
        <time>2024-07-19T20:21:18.774Z</time>
      </trkpt>
      <trkpt lat="51.408504" lon="5.258030">
        <ele>26.698955</ele>
        <time>2024-07-19T20:21:27.794Z</time>
      </trkpt>
      <trkpt lat="51.409026" lon="5.257536">
        <ele>26.709973</ele>
        <time>2024-07-19T20:21:40.059Z</time>
      </trkpt>
      <trkpt lat="51.409183" lon="5.257397">
        <ele>26.713233</ele>
        <time>2024-07-19T20:21:43.653Z</time>
      </trkpt>
      <trkpt lat="51.409318" lon="5.257264">
        <ele>26.716113</ele>
        <time>2024-07-19T20:21:46.907Z</time>
      </trkpt>
      <trkpt lat="51.409478" lon="5.256589">
        <ele>26.724300</ele>
        <time>2024-07-19T20:21:56.122Z</time>
      </trkpt>
      <trkpt lat="51.410352" lon="5.252914">
        <ele>26.704930</ele>
        <time>2024-07-19T20:22:46.448Z</time>
      </trkpt>
      <trkpt lat="51.410556" lon="5.252002">
        <ele>26.518529</ele>
        <time>2024-07-19T20:22:58.074Z</time>
      </trkpt>
      <trkpt lat="51.410784" lon="5.251119">
        <ele>26.334668</ele>
        <time>2024-07-19T20:23:09.227Z</time>
      </trkpt>
      <trkpt lat="51.410837" lon="5.250755">
        <ele>26.253802</ele>
        <time>2024-07-19T20:23:13.445Z</time>
      </trkpt>
      <trkpt lat="51.410837" lon="5.250646">
        <ele>26.224426</ele>
        <time>2024-07-19T20:23:14.662Z</time>
      </trkpt>
      <trkpt lat="51.410718" lon="5.250184">
        <ele>26.089712</ele>
        <time>2024-07-19T20:23:20.292Z</time>
      </trkpt>
      <trkpt lat="51.411305" lon="5.249838">
        <ele>25.819475</ele>
        <time>2024-07-19T20:23:31.853Z</time>
      </trkpt>
      <trkpt lat="51.411496" lon="5.249704">
        <ele>25.729389</ele>
        <time>2024-07-19T20:23:35.774Z</time>
      </trkpt>
      <trkpt lat="51.411723" lon="5.249495">
        <ele>25.616281</ele>
        <time>2024-07-19T20:23:40.721Z</time>
      </trkpt>
      <trkpt lat="51.413106" lon="5.247643">
        <ele>25.369520</ele>
        <time>2024-07-19T20:24:16.454Z</time>
      </trkpt>
      <trkpt lat="51.413899" lon="5.246561">
        <ele>25.287554</ele>
        <time>2024-07-19T20:24:37.926Z</time>
      </trkpt>
      <trkpt lat="51.414889" lon="5.245270">
        <ele>25.137595</ele>
        <time>2024-07-19T20:25:02.708Z</time>
      </trkpt>
      <trkpt lat="51.415276" lon="5.244910">
        <ele>25.015271</ele>
        <time>2024-07-19T20:25:11.203Z</time>
      </trkpt>
      <trkpt lat="51.415795" lon="5.244400">
        <ele>24.848848</ele>
        <time>2024-07-19T20:25:19.456Z</time>
      </trkpt>
      <trkpt lat="51.418066" lon="5.242061">
        <ele>24.296066</ele>
        <time>2024-07-19T20:25:57.867Z</time>
      </trkpt>
      <trkpt lat="51.419000" lon="5.241160">
        <ele>24.083886</ele>
        <time>2024-07-19T20:26:19.119Z</time>
      </trkpt>
      <trkpt lat="51.419130" lon="5.240980">
        <ele>24.050451</ele>
        <time>2024-07-19T20:26:22.418Z</time>
      </trkpt>
      <trkpt lat="51.421756" lon="5.236000">
        <ele>22.850681</ele>
        <time>2024-07-19T20:27:40.173Z</time>
      </trkpt>
      <trkpt lat="51.423600" lon="5.232540">
        <ele>22.332152</ele>
        <time>2024-07-19T20:28:35.749Z</time>
      </trkpt>
      <trkpt lat="51.424350" lon="5.231190">
        <ele>22.147598</ele>
        <time>2024-07-19T20:28:57.914Z</time>
      </trkpt>
      <trkpt lat="51.424372" lon="5.231030">
        <ele>22.130293</ele>
        <time>2024-07-19T20:28:59.882Z</time>
      </trkpt>
      <trkpt lat="51.425135" lon="5.230658">
        <ele>21.995212</ele>
        <time>2024-07-19T20:29:15.350Z</time>
      </trkpt>
      <trkpt lat="51.425956" lon="5.230060">
        <ele>21.794418</ele>
        <time>2024-07-19T20:29:33.017Z</time>
      </trkpt>
      <trkpt lat="51.427021" lon="5.229237">
        <ele>21.544856</ele>
        <time>2024-07-19T20:29:55.728Z</time>
      </trkpt>
      <trkpt lat="51.427506" lon="5.228896">
        <ele>21.548532</ele>
        <time>2024-07-19T20:30:06.063Z</time>
      </trkpt>
      <trkpt lat="51.427633" lon="5.228858">
        <ele>21.549429</ele>
        <time>2024-07-19T20:30:08.674Z</time>
      </trkpt>
      <trkpt lat="51.427696" lon="5.228760">
        <ele>21.550038</ele>
        <time>2024-07-19T20:30:10.465Z</time>
      </trkpt>
      <trkpt lat="51.428416" lon="5.228236">
        <ele>21.555526</ele>
        <time>2024-07-19T20:30:26.782Z</time>
      </trkpt>
      <trkpt lat="51.429872" lon="5.227235">
        <ele>21.825189</ele>
        <time>2024-07-19T20:31:00.643Z</time>
      </trkpt>
      <trkpt lat="51.433082" lon="5.225184">
        <ele>21.930745</ele>
        <time>2024-07-19T20:32:10.696Z</time>
      </trkpt>
      <trkpt lat="51.433181" lon="5.225178">
        <ele>21.928323</ele>
        <time>2024-07-19T20:32:12.657Z</time>
      </trkpt>
      <trkpt lat="51.435899" lon="5.223401">
        <ele>21.594043</ele>
        <time>2024-07-19T20:33:10.352Z</time>
      </trkpt>
      <trkpt lat="51.436021" lon="5.223234">
        <ele>21.586985</ele>
        <time>2024-07-19T20:33:13.521Z</time>
      </trkpt>
      <trkpt lat="51.436717" lon="5.222783">
        <ele>21.553953</ele>
        <time>2024-07-19T20:33:28.552Z</time>
      </trkpt>
      <trkpt lat="51.438453" lon="5.221328">
        <ele>21.807947</ele>
        <time>2024-07-19T20:34:09.282Z</time>
      </trkpt>
      <trkpt lat="51.438906" lon="5.220856">
        <ele>21.851639</ele>
        <time>2024-07-19T20:34:20.656Z</time>
      </trkpt>
      <trkpt lat="51.439250" lon="5.220398">
        <ele>21.887799</ele>
        <time>2024-07-19T20:34:30.025Z</time>
      </trkpt>
      <trkpt lat="51.439476" lon="5.220019">
        <ele>21.914244</ele>
        <time>2024-07-19T20:34:36.781Z</time>
      </trkpt>
      <trkpt lat="51.439721" lon="5.219517">
        <ele>21.946390</ele>
        <time>2024-07-19T20:34:44.789Z</time>
      </trkpt>
      <trkpt lat="51.439830" lon="5.219241">
        <ele>21.919683</ele>
        <time>2024-07-19T20:34:48.836Z</time>
      </trkpt>
      <trkpt lat="51.440152" lon="5.218196">
        <ele>21.723487</ele>
        <time>2024-07-19T20:35:02.767Z</time>
      </trkpt>
      <trkpt lat="51.440227" lon="5.218065">
        <ele>21.693550</ele>
        <time>2024-07-19T20:35:04.844Z</time>
      </trkpt>
      <trkpt lat="51.440252" lon="5.217989">
        <ele>21.679087</ele>
        <time>2024-07-19T20:35:05.867Z</time>
      </trkpt>
      <trkpt lat="51.440268" lon="5.217754">
        <ele>21.639300</ele>
        <time>2024-07-19T20:35:08.699Z</time>
      </trkpt>
      <trkpt lat="51.440419" lon="5.217254">
        <ele>21.545791</ele>
        <time>2024-07-19T20:35:15.290Z</time>
      </trkpt>
      <trkpt lat="51.440515" lon="5.217072">
        <ele>21.505664</ele>
        <time>2024-07-19T20:35:18.063Z</time>
      </trkpt>
      <trkpt lat="51.440684" lon="5.216507">
        <ele>21.470563</ele>
        <time>2024-07-19T20:35:25.519Z</time>
      </trkpt>
      <trkpt lat="51.441028" lon="5.215034">
        <ele>21.483601</ele>
        <time>2024-07-19T20:35:45.499Z</time>
      </trkpt>
      <trkpt lat="51.441099" lon="5.214730">
        <ele>21.486292</ele>
        <time>2024-07-19T20:35:49.716Z</time>
      </trkpt>
      <trkpt lat="51.441137" lon="5.214558">
        <ele>21.487804</ele>
        <time>2024-07-19T20:35:52.137Z</time>
      </trkpt>
      <trkpt lat="51.441142" lon="5.214521">
        <ele>21.488118</ele>
        <time>2024-07-19T20:35:52.635Z</time>
      </trkpt>
      <trkpt lat="51.441180" lon="5.214278">
        <ele>21.490195</ele>
        <time>2024-07-19T20:35:55.923Z</time>
      </trkpt>
      <trkpt lat="51.441330" lon="5.213950">
        <ele>21.496712</ele>
        <time>2024-07-19T20:36:01.279Z</time>
      </trkpt>
      <trkpt lat="51.441587" lon="5.213595">
        <ele>21.507159</ele>
        <time>2024-07-19T20:36:08.378Z</time>
      </trkpt>
      <trkpt lat="51.441685" lon="5.213303">
        <ele>21.513527</ele>
        <time>2024-07-19T20:36:12.617Z</time>
      </trkpt>
      <trkpt lat="51.441704" lon="5.213242">
        <ele>21.514837</ele>
        <time>2024-07-19T20:36:13.506Z</time>
      </trkpt>
      <trkpt lat="51.441773" lon="5.213193">
        <ele>21.517161</ele>
        <time>2024-07-19T20:36:15.041Z</time>
      </trkpt>
      <trkpt lat="51.442151" lon="5.213096">
        <ele>21.528954</ele>
        <time>2024-07-19T20:36:22.879Z</time>
      </trkpt>
      <trkpt lat="51.443009" lon="5.212583">
        <ele>21.477319</ele>
        <time>2024-07-19T20:36:40.816Z</time>
      </trkpt>
      <trkpt lat="51.443217" lon="5.212516">
        <ele>21.434512</ele>
        <time>2024-07-19T20:36:44.850Z</time>
      </trkpt>
      <trkpt lat="51.443602" lon="5.212262">
        <ele>21.350516</ele>
        <time>2024-07-19T20:36:52.897Z</time>
      </trkpt>
      <trkpt lat="51.443683" lon="5.212160">
        <ele>21.329739</ele>
        <time>2024-07-19T20:36:54.881Z</time>
      </trkpt>
      <trkpt lat="51.444350" lon="5.211695">
        <ele>21.183122</ele>
        <time>2024-07-19T20:37:09.128Z</time>
      </trkpt>
      <trkpt lat="51.444553" lon="5.211472">
        <ele>21.142942</ele>
        <time>2024-07-19T20:37:13.985Z</time>
      </trkpt>
      <trkpt lat="51.444792" lon="5.211066">
        <ele>21.086094</ele>
        <time>2024-07-19T20:37:20.811Z</time>
      </trkpt>
      <trkpt lat="51.445310" lon="5.210337">
        <ele>20.973561</ele>
        <time>2024-07-19T20:37:34.354Z</time>
      </trkpt>
      <trkpt lat="51.445801" lon="5.209639">
        <ele>20.865323</ele>
        <time>2024-07-19T20:37:47.141Z</time>
      </trkpt>
      <trkpt lat="51.446196" lon="5.209014">
        <ele>20.770476</ele>
        <time>2024-07-19T20:37:57.801Z</time>
      </trkpt>
      <trkpt lat="51.446734" lon="5.208018">
        <ele>20.630033</ele>
        <time>2024-07-19T20:38:13.782Z</time>
      </trkpt>
      <trkpt lat="51.448647" lon="5.204871">
        <ele>20.837465</ele>
        <time>2024-07-19T20:39:10.772Z</time>
      </trkpt>
      <trkpt lat="51.450282" lon="5.202116">
        <ele>20.669724</ele>
        <time>2024-07-19T20:39:58.385Z</time>
      </trkpt>
      <trkpt lat="51.451875" lon="5.199439">
        <ele>19.663958</ele>
        <time>2024-07-19T20:40:40.916Z</time>
      </trkpt>
      <trkpt lat="51.452100" lon="5.199098">
        <ele>19.581739</ele>
        <time>2024-07-19T20:40:45.043Z</time>
      </trkpt>
      <trkpt lat="51.452286" lon="5.198742">
        <ele>19.520863</ele>
        <time>2024-07-19T20:40:48.966Z</time>
      </trkpt>
      <trkpt lat="51.454746" lon="5.194728">
        <ele>19.164973</ele>
        <time>2024-07-19T20:41:39.596Z</time>
      </trkpt>
      <trkpt lat="51.454672" lon="5.194625">
        <ele>19.186563</ele>
        <time>2024-07-19T20:41:41.668Z</time>
      </trkpt>
      <trkpt lat="51.454641" lon="5.194587">
        <ele>19.195161</ele>
        <time>2024-07-19T20:41:42.491Z</time>
      </trkpt>
      <trkpt lat="51.453885" lon="5.194328">
        <ele>19.365544</ele>
        <time>2024-07-19T20:41:58.954Z</time>
      </trkpt>
      <trkpt lat="51.453500" lon="5.194159">
        <ele>19.453518</ele>
        <time>2024-07-19T20:42:07.776Z</time>
      </trkpt>
      <trkpt lat="51.453423" lon="5.194087">
        <ele>19.485782</ele>
        <time>2024-07-19T20:42:09.724Z</time>
      </trkpt>
      <trkpt lat="51.453310" lon="5.193842">
        <ele>19.572289</ele>
        <time>2024-07-19T20:42:14.104Z</time>
      </trkpt>
      <trkpt lat="51.453120" lon="5.193280">
        <ele>19.753752</ele>
        <time>2024-07-19T20:42:23.023Z</time>
      </trkpt>
      <trkpt lat="51.452980" lon="5.193020">
        <ele>19.851274</ele>
        <time>2024-07-19T20:42:27.761Z</time>
      </trkpt>
      <trkpt lat="51.452870" lon="5.192910">
        <ele>19.910304</ele>
        <time>2024-07-19T20:42:30.688Z</time>
      </trkpt>
      <trkpt lat="51.452600" lon="5.192770">
        <ele>20.039533</ele>
        <time>2024-07-19T20:42:36.985Z</time>
      </trkpt>
      <trkpt lat="51.452390" lon="5.192720">
        <ele>20.136223</ele>
        <time>2024-07-19T20:42:41.664Z</time>
      </trkpt>
      <trkpt lat="51.452160" lon="5.192560">
        <ele>20.250393</ele>
        <time>2024-07-19T20:42:47.294Z</time>
      </trkpt>
      <trkpt lat="51.450380" lon="5.189790">
        <ele>20.342044</ele>
        <time>2024-07-19T20:43:37.404Z</time>
      </trkpt>
      <trkpt lat="51.450210" lon="5.189620">
        <ele>20.326502</ele>
        <time>2024-07-19T20:43:41.413Z</time>
      </trkpt>
      <trkpt lat="51.449740" lon="5.189300">
        <ele>20.286886</ele>
        <time>2024-07-19T20:43:51.628Z</time>
      </trkpt>
      <trkpt lat="51.449570" lon="5.189140">
        <ele>20.271593</ele>
        <time>2024-07-19T20:43:55.544Z</time>
      </trkpt>
      <trkpt lat="51.449440" lon="5.188910">
        <ele>20.256578</ele>
        <time>2024-07-19T20:43:59.401Z</time>
      </trkpt>
      <trkpt lat="51.449377" lon="5.188730">
        <ele>20.242354</ele>
        <time>2024-07-19T20:44:01.927Z</time>
      </trkpt>
      <trkpt lat="51.449364" lon="5.188625">
        <ele>20.231062</ele>
        <time>2024-07-19T20:44:02.880Z</time>
      </trkpt>
      <trkpt lat="51.449389" lon="5.188206">
        <ele>20.186666</ele>
        <time>2024-07-19T20:44:06.676Z</time>
      </trkpt>
      <trkpt lat="51.449604" lon="5.185483">
        <ele>19.886347</ele>
        <time>2024-07-19T20:44:30.798Z</time>
      </trkpt>
      <trkpt lat="51.450000" lon="5.185590">
        <ele>19.803264</ele>
        <time>2024-07-19T20:44:36.455Z</time>
      </trkpt>
      <trkpt lat="51.450270" lon="5.185580">
        <ele>19.747387</ele>
        <time>2024-07-19T20:44:40.328Z</time>
      </trkpt>
      <trkpt lat="51.450370" lon="5.185540">
        <ele>19.726065</ele>
        <time>2024-07-19T20:44:41.781Z</time>
      </trkpt>
      <trkpt lat="51.451510" lon="5.184480">
        <ele>19.373493</ele>
        <time>2024-07-19T20:45:00.159Z</time>
      </trkpt>
      <trkpt lat="51.451810" lon="5.184340">
        <ele>19.265835</ele>
        <time>2024-07-19T20:45:04.436Z</time>
      </trkpt>
      <trkpt lat="51.452227" lon="5.184269">
        <ele>19.121337</ele>
        <time>2024-07-19T20:45:10.122Z</time>
      </trkpt>
      <trkpt lat="51.452477" lon="5.184227">
        <ele>19.034720</ele>
        <time>2024-07-19T20:45:13.483Z</time>
      </trkpt>
      <trkpt lat="51.453690" lon="5.184050">
        <ele>18.686520</ele>
        <time>2024-07-19T20:45:36.515Z</time>
      </trkpt>
      <trkpt lat="51.453940" lon="5.184050">
        <ele>18.618553</ele>
        <time>2024-07-19T20:45:41.379Z</time>
      </trkpt>
      <trkpt lat="51.454110" lon="5.184080">
        <ele>18.572057</ele>
        <time>2024-07-19T20:45:44.716Z</time>
      </trkpt>
      <trkpt lat="51.455140" lon="5.184580">
        <ele>18.429305</ele>
        <time>2024-07-19T20:46:05.917Z</time>
      </trkpt>
      <trkpt lat="51.455380" lon="5.184650">
        <ele>18.416583</ele>
        <time>2024-07-19T20:46:10.820Z</time>
      </trkpt>
      <trkpt lat="51.455709" lon="5.184651">
        <ele>18.399423</ele>
        <time>2024-07-19T20:46:17.452Z</time>
      </trkpt>
      <trkpt lat="51.456034" lon="5.184533">
        <ele>18.382044</ele>
        <time>2024-07-19T20:46:24.224Z</time>
      </trkpt>
      <trkpt lat="51.457995" lon="5.183280">
        <ele>18.395600</ele>
        <time>2024-07-19T20:47:07.267Z</time>
      </trkpt>
      <trkpt lat="51.458027" lon="5.183136">
        <ele>18.375751</ele>
        <time>2024-07-19T20:47:09.210Z</time>
      </trkpt>
      <trkpt lat="51.458136" lon="5.182865">
        <ele>18.333872</ele>
        <time>2024-07-19T20:47:13.318Z</time>
      </trkpt>
      <trkpt lat="51.458863" lon="5.182205">
        <ele>18.159830</ele>
        <time>2024-07-19T20:47:29.657Z</time>
      </trkpt>
      <trkpt lat="51.458990" lon="5.182088">
        <ele>18.129317</ele>
        <time>2024-07-19T20:47:32.441Z</time>
      </trkpt>
      <trkpt lat="51.459010" lon="5.182073">
        <ele>18.124717</ele>
        <time>2024-07-19T20:47:32.859Z</time>
      </trkpt>
      <trkpt lat="51.459128" lon="5.181978">
        <ele>18.097210</ele>
        <time>2024-07-19T20:47:35.326Z</time>
      </trkpt>
      <trkpt lat="51.459091" lon="5.181893">
        <ele>18.083748</ele>
        <time>2024-07-19T20:47:36.530Z</time>
      </trkpt>
      <trkpt lat="51.458626" lon="5.180802">
        <ele>17.829134</ele>
        <time>2024-07-19T20:47:47.417Z</time>
      </trkpt>
      <trkpt lat="51.458420" lon="5.180310">
        <ele>17.702966</ele>
        <time>2024-07-19T20:47:52.465Z</time>
      </trkpt>
      <trkpt lat="51.458190" lon="5.179670">
        <ele>17.545709</ele>
        <time>2024-07-19T20:47:58.873Z</time>
      </trkpt>
      <trkpt lat="51.458071" lon="5.179277">
        <ele>17.452705</ele>
        <time>2024-07-19T20:48:02.658Z</time>
      </trkpt>
      <trkpt lat="51.457896" lon="5.178447">
        <ele>17.466088</ele>
        <time>2024-07-19T20:48:10.441Z</time>
      </trkpt>
      <trkpt lat="51.457780" lon="5.177610">
        <ele>17.509726</ele>
        <time>2024-07-19T20:48:18.468Z</time>
      </trkpt>
      <trkpt lat="51.457710" lon="5.176150">
        <ele>17.611703</ele>
        <time>2024-07-19T20:48:32.887Z</time>
      </trkpt>
      <trkpt lat="51.457720" lon="5.175530">
        <ele>17.731482</ele>
        <time>2024-07-19T20:48:38.965Z</time>
      </trkpt>
      <trkpt lat="51.457700" lon="5.175310">
        <ele>17.774420</ele>
        <time>2024-07-19T20:48:41.139Z</time>
      </trkpt>
      <trkpt lat="51.457620" lon="5.174760">
        <ele>17.883496</ele>
        <time>2024-07-19T20:48:46.617Z</time>
      </trkpt>
      <trkpt lat="51.457150" lon="5.172860">
        <ele>18.437029</ele>
        <time>2024-07-19T20:49:07.790Z</time>
      </trkpt>
      <trkpt lat="51.457044" lon="5.172221">
        <ele>18.703216</ele>
        <time>2024-07-19T20:49:15.113Z</time>
      </trkpt>
      <trkpt lat="51.456760" lon="5.170520">
        <ele>19.308717</ele>
        <time>2024-07-19T20:49:34.650Z</time>
      </trkpt>
      <trkpt lat="51.456730" lon="5.169820">
        <ele>19.344107</ele>
        <time>2024-07-19T20:49:42.111Z</time>
      </trkpt>
      <trkpt lat="51.456790" lon="5.169210">
        <ele>19.375255</ele>
        <time>2024-07-19T20:49:48.309Z</time>
      </trkpt>
      <trkpt lat="51.457610" lon="5.164410">
        <ele>18.558591</ele>
        <time>2024-07-19T20:50:29.789Z</time>
      </trkpt>
      <trkpt lat="51.457644" lon="5.164064">
        <ele>18.521921</ele>
        <time>2024-07-19T20:50:32.782Z</time>
      </trkpt>
      <trkpt lat="51.457648" lon="5.163787">
        <ele>18.492915</ele>
        <time>2024-07-19T20:50:35.204Z</time>
      </trkpt>
      <trkpt lat="51.457619" lon="5.163514">
        <ele>18.463922</ele>
        <time>2024-07-19T20:50:37.632Z</time>
      </trkpt>
      <trkpt lat="51.457349" lon="5.161949">
        <ele>18.418696</ele>
        <time>2024-07-19T20:50:52.861Z</time>
      </trkpt>
      <trkpt lat="51.457073" lon="5.160407">
        <ele>18.687531</ele>
        <time>2024-07-19T20:51:09.274Z</time>
      </trkpt>
      <trkpt lat="51.457001" lon="5.159992">
        <ele>18.759717</ele>
        <time>2024-07-19T20:51:13.749Z</time>
      </trkpt>
      <trkpt lat="51.456460" lon="5.156860">
        <ele>18.799813</ele>
        <time>2024-07-19T20:51:44.017Z</time>
      </trkpt>
      <trkpt lat="51.456350" lon="5.155990">
        <ele>18.540563</ele>
        <time>2024-07-19T20:51:51.354Z</time>
      </trkpt>
      <trkpt lat="51.456317" lon="5.155382">
        <ele>18.356371</ele>
        <time>2024-07-19T20:51:56.299Z</time>
      </trkpt>
      <trkpt lat="51.456290" lon="5.154890">
        <ele>18.207308</ele>
        <time>2024-07-19T20:52:00.202Z</time>
      </trkpt>
      <trkpt lat="51.456300" lon="5.154440">
        <ele>18.071410</ele>
        <time>2024-07-19T20:52:03.832Z</time>
      </trkpt>
      <trkpt lat="51.456430" lon="5.153360">
        <ele>17.929181</ele>
        <time>2024-07-19T20:52:13.008Z</time>
      </trkpt>
      <trkpt lat="51.456470" lon="5.152624">
        <ele>17.930138</ele>
        <time>2024-07-19T20:52:19.635Z</time>
      </trkpt>
      <trkpt lat="51.456570" lon="5.151900">
        <ele>17.931100</ele>
        <time>2024-07-19T20:52:26.816Z</time>
      </trkpt>
      <trkpt lat="51.456630" lon="5.151680">
        <ele>17.931411</ele>
        <time>2024-07-19T20:52:29.216Z</time>
      </trkpt>
      <trkpt lat="51.456770" lon="5.151320">
        <ele>17.931961</ele>
        <time>2024-07-19T20:52:33.435Z</time>
      </trkpt>
      <trkpt lat="51.457410" lon="5.149940">
        <ele>18.297078</ele>
        <time>2024-07-19T20:52:51.226Z</time>
      </trkpt>
      <trkpt lat="51.457760" lon="5.149530">
        <ele>18.455251</ele>
        <time>2024-07-19T20:52:58.444Z</time>
      </trkpt>
      <trkpt lat="51.457969" lon="5.149199">
        <ele>18.562433</ele>
        <time>2024-07-19T20:53:03.148Z</time>
      </trkpt>
      <trkpt lat="51.457798" lon="5.149070">
        <ele>18.602169</ele>
        <time>2024-07-19T20:53:07.238Z</time>
      </trkpt>
      <trkpt lat="51.456816" lon="5.147941">
        <ele>18.741486</ele>
        <time>2024-07-19T20:53:32.118Z</time>
      </trkpt>
      <trkpt lat="51.455817" lon="5.146626">
        <ele>18.880667</ele>
        <time>2024-07-19T20:53:58.180Z</time>
      </trkpt>
      <trkpt lat="51.455285" lon="5.146007">
        <ele>18.948558</ele>
        <time>2024-07-19T20:54:11.763Z</time>
      </trkpt>
      <trkpt lat="51.454810" lon="5.145370">
        <ele>19.087008</ele>
        <time>2024-07-19T20:54:24.944Z</time>
      </trkpt>
      <trkpt lat="51.454150" lon="5.144400">
        <ele>19.404741</ele>
        <time>2024-07-19T20:54:44.570Z</time>
      </trkpt>
      <trkpt lat="51.453990" lon="5.144380">
        <ele>19.461717</ele>
        <time>2024-07-19T20:54:48.097Z</time>
      </trkpt>
      <trkpt lat="51.453600" lon="5.144660">
        <ele>19.613402</ele>
        <time>2024-07-19T20:54:57.393Z</time>
      </trkpt>
      <trkpt lat="51.453240" lon="5.144780">
        <ele>19.694896</ele>
        <time>2024-07-19T20:55:05.278Z</time>
      </trkpt>
      <trkpt lat="51.453080" lon="5.144790">
        <ele>19.729158</ele>
        <time>2024-07-19T20:55:08.679Z</time>
      </trkpt>
      <trkpt lat="51.451890" lon="5.142550">
        <ele>20.084410</ele>
        <time>2024-07-19T20:55:46.972Z</time>
      </trkpt>
      <trkpt lat="51.451510" lon="5.142110">
        <ele>20.152572</ele>
        <time>2024-07-19T20:55:56.588Z</time>
      </trkpt>
      <trkpt lat="51.451260" lon="5.141740">
        <ele>20.202043</ele>
        <time>2024-07-19T20:56:03.575Z</time>
      </trkpt>
      <trkpt lat="51.451090" lon="5.141360">
        <ele>20.244446</ele>
        <time>2024-07-19T20:56:09.645Z</time>
      </trkpt>
      <trkpt lat="51.451021" lon="5.141269">
        <ele>20.257438</ele>
        <time>2024-07-19T20:56:11.479Z</time>
      </trkpt>
      <trkpt lat="51.450880" lon="5.141160">
        <ele>20.306001</ele>
        <time>2024-07-19T20:56:14.800Z</time>
      </trkpt>
      <trkpt lat="51.450670" lon="5.141100">
        <ele>20.397603</ele>
        <time>2024-07-19T20:56:19.355Z</time>
      </trkpt>
      <trkpt lat="51.450084" lon="5.141203">
        <ele>20.650763</ele>
        <time>2024-07-19T20:56:31.979Z</time>
      </trkpt>
      <trkpt lat="51.449948" lon="5.141269">
        <ele>20.711781</ele>
        <time>2024-07-19T20:56:35.114Z</time>
      </trkpt>
      <trkpt lat="51.449947" lon="5.141058">
        <ele>20.768252</ele>
        <time>2024-07-19T20:56:38.061Z</time>
      </trkpt>
      <trkpt lat="51.450034" lon="5.140858">
        <ele>20.833528</ele>
        <time>2024-07-19T20:56:41.533Z</time>
      </trkpt>
      <trkpt lat="51.450037" lon="5.140768">
        <ele>20.857649</ele>
        <time>2024-07-19T20:56:42.759Z</time>
      </trkpt>
      <trkpt lat="51.450034" lon="5.140656">
        <ele>20.887651</ele>
        <time>2024-07-19T20:56:44.306Z</time>
      </trkpt>
      <trkpt lat="51.450024" lon="5.140411">
        <ele>20.953361</ele>
        <time>2024-07-19T20:56:47.752Z</time>
      </trkpt>
      <trkpt lat="51.450007" lon="5.140134">
        <ele>21.027853</ele>
        <time>2024-07-19T20:56:51.688Z</time>
      </trkpt>
      <trkpt lat="51.450005" lon="5.139982">
        <ele>21.088599</ele>
        <time>2024-07-19T20:56:53.841Z</time>
      </trkpt>
      <trkpt lat="51.449898" lon="5.139946">
        <ele>21.167874</ele>
        <time>2024-07-19T20:56:56.374Z</time>
      </trkpt>
      <trkpt lat="51.449798" lon="5.139966">
        <ele>21.240947</ele>
        <time>2024-07-19T20:56:58.683Z</time>
      </trkpt>
      <trkpt lat="51.449711" lon="5.140029">
        <ele>21.310159</ele>
        <time>2024-07-19T20:57:00.886Z</time>
      </trkpt>
      <trkpt lat="51.449672" lon="5.140183">
        <ele>21.385277</ele>
        <time>2024-07-19T20:57:03.266Z</time>
      </trkpt>
      <trkpt lat="51.449629" lon="5.140217">
        <ele>21.420037</ele>
        <time>2024-07-19T20:57:04.137Z</time>
      </trkpt>
      <trkpt lat="51.449440" lon="5.140477">
        <ele>21.600555</ele>
        <time>2024-07-19T20:57:08.589Z</time>
      </trkpt>
      <trkpt lat="51.449301" lon="5.140549">
        <ele>21.706468</ele>
        <time>2024-07-19T20:57:11.306Z</time>
      </trkpt>
      <trkpt lat="51.448147" lon="5.140588">
        <ele>22.473602</ele>
        <time>2024-07-19T20:57:32.067Z</time>
      </trkpt>
      <trkpt lat="51.446126" lon="5.140615">
        <ele>23.266122</ele>
        <time>2024-07-19T20:58:16.077Z</time>
      </trkpt>
      <trkpt lat="51.446109" lon="5.139562">
        <ele>23.363862</ele>
        <time>2024-07-19T20:58:29.644Z</time>
      </trkpt>
      <trkpt lat="51.446090" lon="5.139070">
        <ele>23.409602</ele>
        <time>2024-07-19T20:58:35.950Z</time>
      </trkpt>
      <trkpt lat="51.446050" lon="5.137258">
        <ele>23.411319</ele>
        <time>2024-07-19T20:58:58.619Z</time>
      </trkpt>
      <trkpt lat="51.445980" lon="5.134040">
        <ele>23.152671</ele>
        <time>2024-07-19T20:59:38.737Z</time>
      </trkpt>
      <trkpt lat="51.446010" lon="5.133810">
        <ele>23.123825</ele>
        <time>2024-07-19T20:59:41.633Z</time>
      </trkpt>
      <trkpt lat="51.446210" lon="5.132920">
        <ele>23.007684</ele>
        <time>2024-07-19T20:59:52.631Z</time>
      </trkpt>
      <trkpt lat="51.446270" lon="5.132790">
        <ele>22.976809</ele>
        <time>2024-07-19T20:59:54.562Z</time>
      </trkpt>
      <trkpt lat="51.446358" lon="5.132705">
        <ele>22.927982</ele>
        <time>2024-07-19T20:59:56.459Z</time>
      </trkpt>
      <trkpt lat="51.447477" lon="5.131523">
        <ele>22.291133</ele>
        <time>2024-07-19T21:00:21.124Z</time>
      </trkpt>
      <trkpt lat="51.448287" lon="5.130466">
        <ele>22.066351</ele>
        <time>2024-07-19T21:00:41.065Z</time>
      </trkpt>
      <trkpt lat="51.448642" lon="5.129982">
        <ele>22.018791</ele>
        <time>2024-07-19T21:00:50.538Z</time>
      </trkpt>
      <trkpt lat="51.448900" lon="5.129630">
        <ele>21.984216</ele>
        <time>2024-07-19T21:00:57.591Z</time>
      </trkpt>
      <trkpt lat="51.448946" lon="5.129518">
        <ele>21.975682</ele>
        <time>2024-07-19T21:00:59.230Z</time>
      </trkpt>
      <trkpt lat="51.448968" lon="5.129382">
        <ele>21.966742</ele>
        <time>2024-07-19T21:01:01.033Z</time>
      </trkpt>
      <trkpt lat="51.448947" lon="5.128802">
        <ele>21.963359</ele>
        <time>2024-07-19T21:01:08.376Z</time>
      </trkpt>
      <trkpt lat="51.448893" lon="5.127367">
        <ele>21.984785</ele>
        <time>2024-07-19T21:01:26.691Z</time>
      </trkpt>
      <trkpt lat="51.448846" lon="5.127211">
        <ele>21.987367</ele>
        <time>2024-07-19T21:01:28.811Z</time>
      </trkpt>
      <trkpt lat="51.448659" lon="5.126820">
        <ele>21.994713</ele>
        <time>2024-07-19T21:01:33.465Z</time>
      </trkpt>
      <trkpt lat="51.447444" lon="5.124296">
        <ele>22.082029</ele>
        <time>2024-07-19T21:02:02.950Z</time>
      </trkpt>
      <trkpt lat="51.447353" lon="5.123952">
        <ele>22.134310</ele>
        <time>2024-07-19T21:02:06.655Z</time>
      </trkpt>
      <trkpt lat="51.446859" lon="5.120628">
        <ele>22.520447</ele>
        <time>2024-07-19T21:02:40.524Z</time>
      </trkpt>
      <trkpt lat="51.447010" lon="5.120640">
        <ele>22.515339</ele>
        <time>2024-07-19T21:02:42.815Z</time>
      </trkpt>
      <trkpt lat="51.447082" lon="5.120683">
        <ele>22.512743</ele>
        <time>2024-07-19T21:02:43.973Z</time>
      </trkpt>
      <trkpt lat="51.448894" lon="5.123048">
        <ele>22.186713</ele>
        <time>2024-07-19T21:03:16.954Z</time>
      </trkpt>
      <trkpt lat="51.451407" lon="5.126299">
        <ele>21.478131</ele>
        <time>2024-07-19T21:04:01.890Z</time>
      </trkpt>
      <trkpt lat="51.453696" lon="5.128611">
        <ele>21.253919</ele>
        <time>2024-07-19T21:04:41.399Z</time>
      </trkpt>
      <trkpt lat="51.454140" lon="5.129070">
        <ele>21.293086</ele>
        <time>2024-07-19T21:04:49.363Z</time>
      </trkpt>
      <trkpt lat="51.454240" lon="5.129110">
        <ele>21.300729</ele>
        <time>2024-07-19T21:04:50.923Z</time>
      </trkpt>
      <trkpt lat="51.454380" lon="5.129080">
        <ele>21.311203</ele>
        <time>2024-07-19T21:04:53.067Z</time>
      </trkpt>
      <trkpt lat="51.454750" lon="5.128810">
        <ele>21.341345</ele>
        <time>2024-07-19T21:04:59.278Z</time>
      </trkpt>
      <trkpt lat="51.455433" lon="5.128434">
        <ele>21.401256</ele>
        <time>2024-07-19T21:05:10.427Z</time>
      </trkpt>
      <trkpt lat="51.456804" lon="5.127681">
        <ele>21.575793</ele>
        <time>2024-07-19T21:05:32.713Z</time>
      </trkpt>
      <trkpt lat="51.456868" lon="5.127665">
        <ele>21.583595</ele>
        <time>2024-07-19T21:05:33.707Z</time>
      </trkpt>
      <trkpt lat="51.456955" lon="5.127718">
        <ele>21.594803</ele>
        <time>2024-07-19T21:05:35.126Z</time>
      </trkpt>
      <trkpt lat="51.458961" lon="5.131550">
        <ele>21.179437</ele>
        <time>2024-07-19T21:06:19.793Z</time>
      </trkpt>
      <trkpt lat="51.459265" lon="5.132102">
        <ele>21.098382</ele>
        <time>2024-07-19T21:06:26.193Z</time>
      </trkpt>
      <trkpt lat="51.459941" lon="5.133239">
        <ele>20.954197</ele>
        <time>2024-07-19T21:06:39.931Z</time>
      </trkpt>
      <trkpt lat="51.460556" lon="5.134259">
        <ele>20.826099</ele>
        <time>2024-07-19T21:06:52.636Z</time>
      </trkpt>
      <trkpt lat="51.460647" lon="5.134449">
        <ele>20.818678</ele>
        <time>2024-07-19T21:06:54.832Z</time>
      </trkpt>
      <trkpt lat="51.461310" lon="5.134090">
        <ele>20.788226</ele>
        <time>2024-07-19T21:07:08.954Z</time>
      </trkpt>
      <trkpt lat="51.461560" lon="5.135226">
        <ele>20.755559</ele>
        <time>2024-07-19T21:07:23.960Z</time>
      </trkpt>
      <trkpt lat="51.461836" lon="5.137073">
        <ele>20.740786</ele>
        <time>2024-07-19T21:07:48.181Z</time>
      </trkpt>
      <trkpt lat="51.461930" lon="5.137699">
        <ele>20.738435</ele>
        <time>2024-07-19T21:07:56.256Z</time>
      </trkpt>
      <trkpt lat="51.461992" lon="5.138108">
        <ele>20.736898</ele>
        <time>2024-07-19T21:08:01.460Z</time>
      </trkpt>
      <trkpt lat="51.462006" lon="5.138215">
        <ele>20.736499</ele>
        <time>2024-07-19T21:08:02.808Z</time>
      </trkpt>
      <trkpt lat="51.462091" lon="5.138781">
        <ele>20.665777</ele>
        <time>2024-07-19T21:08:09.854Z</time>
      </trkpt>
      <trkpt lat="51.462165" lon="5.139144">
        <ele>20.604137</ele>
        <time>2024-07-19T21:08:14.505Z</time>
      </trkpt>
      <trkpt lat="51.462220" lon="5.139281">
        <ele>20.577835</ele>
        <time>2024-07-19T21:08:16.508Z</time>
      </trkpt>
      <trkpt lat="51.462288" lon="5.139451">
        <ele>20.545232</ele>
        <time>2024-07-19T21:08:18.936Z</time>
      </trkpt>
      <trkpt lat="51.462237" lon="5.139616">
        <ele>20.515506</ele>
        <time>2024-07-19T21:08:21.242Z</time>
      </trkpt>
      <trkpt lat="51.462192" lon="5.139753">
        <ele>20.490512</ele>
        <time>2024-07-19T21:08:23.157Z</time>
      </trkpt>
      <trkpt lat="51.462188" lon="5.139885">
        <ele>20.469184</ele>
        <time>2024-07-19T21:08:24.701Z</time>
      </trkpt>
      <trkpt lat="51.462345" lon="5.139917">
        <ele>20.428189</ele>
        <time>2024-07-19T21:08:27.815Z</time>
      </trkpt>
      <trkpt lat="51.462492" lon="5.139907">
        <ele>20.390077</ele>
        <time>2024-07-19T21:08:30.659Z</time>
      </trkpt>
      <trkpt lat="51.462956" lon="5.139964">
        <ele>20.269456</ele>
        <time>2024-07-19T21:08:39.413Z</time>
      </trkpt>
      <trkpt lat="51.463291" lon="5.140008">
        <ele>20.169093</ele>
        <time>2024-07-19T21:08:45.631Z</time>
      </trkpt>
      <trkpt lat="51.464032" lon="5.140226">
        <ele>19.944151</ele>
        <time>2024-07-19T21:08:59.673Z</time>
      </trkpt>
      <trkpt lat="51.464451" lon="5.140339">
        <ele>19.817287</ele>
        <time>2024-07-19T21:09:07.932Z</time>
      </trkpt>
      <trkpt lat="51.465201" lon="5.140449">
        <ele>19.768287</ele>
        <time>2024-07-19T21:09:23.269Z</time>
      </trkpt>
      <trkpt lat="51.466785" lon="5.140701">
        <ele>19.842431</ele>
        <time>2024-07-19T21:09:56.264Z</time>
      </trkpt>
      <trkpt lat="51.467521" lon="5.140873">
        <ele>19.770872</ele>
        <time>2024-07-19T21:10:11.377Z</time>
      </trkpt>
      <trkpt lat="51.470084" lon="5.141628">
        <ele>18.982900</ele>
        <time>2024-07-19T21:11:00.801Z</time>
      </trkpt>
      <trkpt lat="51.470169" lon="5.141717">
        <ele>18.931325</ele>
        <time>2024-07-19T21:11:02.687Z</time>
      </trkpt>
      <trkpt lat="51.470301" lon="5.141749">
        <ele>18.863479</ele>
        <time>2024-07-19T21:11:05.135Z</time>
      </trkpt>
      <trkpt lat="51.470425" lon="5.141790">
        <ele>18.799136</ele>
        <time>2024-07-19T21:11:07.457Z</time>
      </trkpt>
      <trkpt lat="51.470543" lon="5.141752">
        <ele>18.737971</ele>
        <time>2024-07-19T21:11:09.711Z</time>
      </trkpt>
      <trkpt lat="51.471724" lon="5.142125">
        <ele>18.126255</ele>
        <time>2024-07-19T21:11:31.864Z</time>
      </trkpt>
      <trkpt lat="51.472384" lon="5.142268">
        <ele>17.875199</ele>
        <time>2024-07-19T21:11:44.249Z</time>
      </trkpt>
      <trkpt lat="51.472752" lon="5.142289">
        <ele>17.744613</ele>
        <time>2024-07-19T21:11:51.161Z</time>
      </trkpt>
      <trkpt lat="51.472823" lon="5.142270">
        <ele>17.719087</ele>
        <time>2024-07-19T21:11:52.495Z</time>
      </trkpt>
      <trkpt lat="51.477126" lon="5.140580">
        <ele>16.796534</ele>
        <time>2024-07-19T21:13:18.636Z</time>
      </trkpt>
      <trkpt lat="51.477671" lon="5.140424">
        <ele>16.921042</ele>
        <time>2024-07-19T21:13:30.217Z</time>
      </trkpt>
      <trkpt lat="51.478240" lon="5.140282">
        <ele>17.050552</ele>
        <time>2024-07-19T21:13:42.492Z</time>
      </trkpt>
      <trkpt lat="51.480408" lon="5.139755">
        <ele>17.900299</ele>
        <time>2024-07-19T21:14:30.934Z</time>
      </trkpt>
      <trkpt lat="51.480799" lon="5.139617">
        <ele>18.064755</ele>
        <time>2024-07-19T21:14:39.689Z</time>
      </trkpt>
      <trkpt lat="51.481034" lon="5.139506">
        <ele>18.151320</ele>
        <time>2024-07-19T21:14:45.002Z</time>
      </trkpt>
      <trkpt lat="51.481787" lon="5.139033">
        <ele>18.437056</ele>
        <time>2024-07-19T21:15:02.389Z</time>
      </trkpt>
      <trkpt lat="51.481869" lon="5.138885">
        <ele>18.480652</ele>
        <time>2024-07-19T21:15:04.974Z</time>
      </trkpt>
      <trkpt lat="51.482216" lon="5.138673">
        <ele>18.611853</ele>
        <time>2024-07-19T21:15:10.807Z</time>
      </trkpt>
      <trkpt lat="51.482365" lon="5.138576">
        <ele>18.652101</ele>
        <time>2024-07-19T21:15:13.487Z</time>
      </trkpt>
      <trkpt lat="51.482933" lon="5.138168">
        <ele>18.741062</ele>
        <time>2024-07-19T21:15:23.735Z</time>
      </trkpt>
      <trkpt lat="51.483511" lon="5.137751">
        <ele>18.831656</ele>
        <time>2024-07-19T21:15:33.435Z</time>
      </trkpt>
      <trkpt lat="51.483712" lon="5.137588">
        <ele>18.863850</ele>
        <time>2024-07-19T21:15:36.796Z</time>
      </trkpt>
      <trkpt lat="51.484174" lon="5.137214">
        <ele>18.759232</ele>
        <time>2024-07-19T21:15:44.050Z</time>
      </trkpt>
      <trkpt lat="51.484261" lon="5.137486">
        <ele>18.664377</ele>
        <time>2024-07-19T21:15:46.657Z</time>
      </trkpt>
      <trkpt lat="51.484344" lon="5.138028">
        <ele>18.491237</ele>
        <time>2024-07-19T21:15:51.334Z</time>
      </trkpt>
      <trkpt lat="51.484370" lon="5.138492">
        <ele>18.346721</ele>
        <time>2024-07-19T21:15:55.147Z</time>
      </trkpt>
      <trkpt lat="51.484428" lon="5.139644">
        <ele>17.985934</ele>
        <time>2024-07-19T21:16:04.377Z</time>
      </trkpt>
      <trkpt lat="51.484527" lon="5.140434">
        <ele>17.694987</ele>
        <time>2024-07-19T21:16:10.625Z</time>
      </trkpt>
      <trkpt lat="51.484620" lon="5.141126">
        <ele>17.439390</ele>
        <time>2024-07-19T21:16:16.304Z</time>
      </trkpt>
      <trkpt lat="51.484640" lon="5.141718">
        <ele>17.225336</ele>
        <time>2024-07-19T21:16:21.236Z</time>
      </trkpt>
      <trkpt lat="51.484633" lon="5.142570">
        <ele>16.940220</ele>
        <time>2024-07-19T21:16:28.530Z</time>
      </trkpt>
      <trkpt lat="51.484622" lon="5.143124">
        <ele>16.848719</ele>
        <time>2024-07-19T21:16:33.318Z</time>
      </trkpt>
      <trkpt lat="51.484588" lon="5.143253">
        <ele>16.825595</ele>
        <time>2024-07-19T21:16:34.999Z</time>
      </trkpt>
      <trkpt lat="51.484504" lon="5.145532">
        <ele>16.476364</ele>
        <time>2024-07-19T21:17:02.265Z</time>
      </trkpt>
      <trkpt lat="51.484367" lon="5.146186">
        <ele>16.455992</ele>
        <time>2024-07-19T21:17:10.752Z</time>
      </trkpt>
      <trkpt lat="51.484251" lon="5.146979">
        <ele>16.431943</ele>
        <time>2024-07-19T21:17:21.226Z</time>
      </trkpt>
      <trkpt lat="51.484222" lon="5.147311">
        <ele>16.422046</ele>
        <time>2024-07-19T21:17:25.633Z</time>
      </trkpt>
      <trkpt lat="51.484182" lon="5.147811">
        <ele>16.407163</ele>
        <time>2024-07-19T21:17:32.215Z</time>
      </trkpt>
      <trkpt lat="51.484154" lon="5.148031">
        <ele>16.400533</ele>
        <time>2024-07-19T21:17:35.042Z</time>
      </trkpt>
      <trkpt lat="51.483981" lon="5.148257">
        <ele>16.351934</ele>
        <time>2024-07-19T21:17:39.278Z</time>
      </trkpt>
      <trkpt lat="51.483963" lon="5.148408">
        <ele>16.323262</ele>
        <time>2024-07-19T21:17:41.106Z</time>
      </trkpt>
      <trkpt lat="51.484113" lon="5.148777">
        <ele>16.241080</ele>
        <time>2024-07-19T21:17:46.347Z</time>
      </trkpt>
      <trkpt lat="51.484090" lon="5.149329">
        <ele>16.137904</ele>
        <time>2024-07-19T21:17:52.960Z</time>
      </trkpt>
      <trkpt lat="51.484062" lon="5.149502">
        <ele>16.104568</ele>
        <time>2024-07-19T21:17:55.121Z</time>
      </trkpt>
      <trkpt lat="51.483863" lon="5.149814">
        <ele>16.021276</ele>
        <time>2024-07-19T21:18:00.437Z</time>
      </trkpt>
      <trkpt lat="51.483840" lon="5.149942">
        <ele>15.996430</ele>
        <time>2024-07-19T21:18:02.008Z</time>
      </trkpt>
      <trkpt lat="51.483863" lon="5.150028">
        <ele>15.978975</ele>
        <time>2024-07-19T21:18:03.062Z</time>
      </trkpt>
      <trkpt lat="51.483935" lon="5.150099">
        <ele>15.953671</ele>
        <time>2024-07-19T21:18:04.691Z</time>
      </trkpt>
      <trkpt lat="51.483999" lon="5.150264">
        <ele>15.917418</ele>
        <time>2024-07-19T21:18:07.073Z</time>
      </trkpt>
      <trkpt lat="51.483999" lon="5.150496">
        <ele>15.874150</ele>
        <time>2024-07-19T21:18:09.749Z</time>
      </trkpt>
      <trkpt lat="51.483891" lon="5.151807">
        <ele>15.597665</ele>
        <time>2024-07-19T21:18:24.995Z</time>
      </trkpt>
      <trkpt lat="51.483845" lon="5.152372">
        <ele>15.477658</ele>
        <time>2024-07-19T21:18:31.466Z</time>
      </trkpt>
      <trkpt lat="51.483756" lon="5.152872">
        <ele>15.368135</ele>
        <time>2024-07-19T21:18:37.630Z</time>
      </trkpt>
      <trkpt lat="51.483667" lon="5.153188">
        <ele>15.295092</ele>
        <time>2024-07-19T21:18:42.138Z</time>
      </trkpt>
      <trkpt lat="51.483606" lon="5.153410">
        <ele>15.251263</ele>
        <time>2024-07-19T21:18:45.201Z</time>
      </trkpt>
      <trkpt lat="51.482747" lon="5.156497">
        <ele>15.374614</ele>
        <time>2024-07-19T21:19:28.311Z</time>
      </trkpt>
      <trkpt lat="51.482466" lon="5.157400">
        <ele>15.402075</ele>
        <time>2024-07-19T21:19:41.029Z</time>
      </trkpt>
      <trkpt lat="51.482144" lon="5.158269">
        <ele>15.429585</ele>
        <time>2024-07-19T21:19:53.956Z</time>
      </trkpt>
      <trkpt lat="51.481676" lon="5.159363">
        <ele>15.461717</ele>
        <time>2024-07-19T21:20:10.950Z</time>
      </trkpt>
      <trkpt lat="51.481363" lon="5.159962">
        <ele>15.479824</ele>
        <time>2024-07-19T21:20:20.770Z</time>
      </trkpt>
      <trkpt lat="51.481286" lon="5.160144">
        <ele>15.484919</ele>
        <time>2024-07-19T21:20:23.557Z</time>
      </trkpt>
      <trkpt lat="51.481249" lon="5.160226">
        <ele>15.487264</ele>
        <time>2024-07-19T21:20:24.846Z</time>
      </trkpt>
      <trkpt lat="51.480958" lon="5.160877">
        <ele>15.505820</ele>
        <time>2024-07-19T21:20:34.858Z</time>
      </trkpt>
      <trkpt lat="51.480666" lon="5.161528">
        <ele>15.570504</ele>
        <time>2024-07-19T21:20:45.201Z</time>
      </trkpt>
      <trkpt lat="51.480269" lon="5.162572">
        <ele>15.669283</ele>
        <time>2024-07-19T21:21:00.954Z</time>
      </trkpt>
      <trkpt lat="51.479880" lon="5.163734">
        <ele>15.809028</ele>
        <time>2024-07-19T21:21:18.173Z</time>
      </trkpt>
      <trkpt lat="51.479368" lon="5.165237">
        <ele>16.072450</ele>
        <time>2024-07-19T21:21:41.283Z</time>
      </trkpt>
      <trkpt lat="51.479260" lon="5.165507">
        <ele>16.121793</ele>
        <time>2024-07-19T21:21:45.506Z</time>
      </trkpt>
      <trkpt lat="51.479167" lon="5.165876">
        <ele>16.183002</ele>
        <time>2024-07-19T21:21:50.667Z</time>
      </trkpt>
      <trkpt lat="51.479050" lon="5.166222">
        <ele>16.242609</ele>
        <time>2024-07-19T21:21:55.603Z</time>
      </trkpt>
      <trkpt lat="51.478662" lon="5.167351">
        <ele>16.437827</ele>
        <time>2024-07-19T21:22:12.390Z</time>
      </trkpt>
      <trkpt lat="51.478631" lon="5.167432">
        <ele>16.452220</ele>
        <time>2024-07-19T21:22:13.704Z</time>
      </trkpt>
      <trkpt lat="51.478461" lon="5.167499">
        <ele>16.494771</ele>
        <time>2024-07-19T21:22:17.426Z</time>
      </trkpt>
      <trkpt lat="51.478417" lon="5.167580">
        <ele>16.511043</ele>
        <time>2024-07-19T21:22:18.853Z</time>
      </trkpt>
      <trkpt lat="51.478384" lon="5.167673">
        <ele>16.527248</ele>
        <time>2024-07-19T21:22:20.286Z</time>
      </trkpt>
      <trkpt lat="51.478367" lon="5.167744">
        <ele>16.538764</ele>
        <time>2024-07-19T21:22:21.311Z</time>
      </trkpt>
      <trkpt lat="51.478380" lon="5.168009">
        <ele>16.579007</ele>
        <time>2024-07-19T21:22:24.895Z</time>
      </trkpt>
      <trkpt lat="51.478352" lon="5.168190">
        <ele>16.607242</ele>
        <time>2024-07-19T21:22:27.396Z</time>
      </trkpt>
      <trkpt lat="51.478212" lon="5.168666">
        <ele>16.692288</ele>
        <time>2024-07-19T21:22:34.441Z</time>
      </trkpt>
      <trkpt lat="51.478124" lon="5.169057">
        <ele>16.760290</ele>
        <time>2024-07-19T21:22:39.986Z</time>
      </trkpt>
      <trkpt lat="51.478030" lon="5.169670">
        <ele>16.863550</ele>
        <time>2024-07-19T21:22:48.341Z</time>
      </trkpt>
      <trkpt lat="51.478021" lon="5.169938">
        <ele>16.907449</ele>
        <time>2024-07-19T21:22:51.879Z</time>
      </trkpt>
      <trkpt lat="51.478012" lon="5.170208">
        <ele>16.951675</ele>
        <time>2024-07-19T21:22:55.510Z</time>
      </trkpt>
      <trkpt lat="51.478011" lon="5.170462">
        <ele>16.993222</ele>
        <time>2024-07-19T21:22:58.864Z</time>
      </trkpt>
      <trkpt lat="51.478058" lon="5.170964">
        <ele>17.076255</ele>
        <time>2024-07-19T21:23:05.669Z</time>
      </trkpt>
      <trkpt lat="51.478162" lon="5.171365">
        <ele>17.081783</ele>
        <time>2024-07-19T21:23:11.412Z</time>
      </trkpt>
      <trkpt lat="51.478368" lon="5.172388">
        <ele>17.046446</ele>
        <time>2024-07-19T21:23:25.060Z</time>
      </trkpt>
      <trkpt lat="51.478398" lon="5.172738">
        <ele>17.034834</ele>
        <time>2024-07-19T21:23:29.444Z</time>
      </trkpt>
      <trkpt lat="51.478488" lon="5.172963">
        <ele>17.026045</ele>
        <time>2024-07-19T21:23:32.635Z</time>
      </trkpt>
      <trkpt lat="51.478618" lon="5.173670">
        <ele>17.001817</ele>
        <time>2024-07-19T21:23:41.392Z</time>
      </trkpt>
      <trkpt lat="51.478610" lon="5.174136">
        <ele>16.953681</ele>
        <time>2024-07-19T21:23:47.005Z</time>
      </trkpt>
      <trkpt lat="51.478516" lon="5.174976">
        <ele>16.844408</ele>
        <time>2024-07-19T21:23:57.492Z</time>
      </trkpt>
      <trkpt lat="51.478513" lon="5.175195">
        <ele>16.816361</ele>
        <time>2024-07-19T21:24:00.208Z</time>
      </trkpt>
      <trkpt lat="51.478535" lon="5.175543">
        <ele>16.771575</ele>
        <time>2024-07-19T21:24:04.497Z</time>
      </trkpt>
      <trkpt lat="51.478593" lon="5.175936">
        <ele>16.719864</ele>
        <time>2024-07-19T21:24:09.391Z</time>
      </trkpt>
      <trkpt lat="51.478719" lon="5.176793">
        <ele>16.594053</ele>
        <time>2024-07-19T21:24:19.948Z</time>
      </trkpt>
      <trkpt lat="51.478719" lon="5.176793">
        <ele>16.594053</ele>
        <time>2024-07-19T21:24:19.949Z</time>
      </trkpt>
      <trkpt lat="51.478740" lon="5.177157">
        <ele>16.518044</ele>
        <time>2024-07-19T21:24:24.310Z</time>
      </trkpt>
      <trkpt lat="51.478736" lon="5.177392">
        <ele>16.469164</ele>
        <time>2024-07-19T21:24:27.081Z</time>
      </trkpt>
      <trkpt lat="51.478729" lon="5.177630">
        <ele>16.419622</ele>
        <time>2024-07-19T21:24:29.900Z</time>
      </trkpt>
      <trkpt lat="51.478673" lon="5.178800">
        <ele>16.175633</ele>
        <time>2024-07-19T21:24:43.924Z</time>
      </trkpt>
      <trkpt lat="51.478656" lon="5.179398">
        <ele>16.051164</ele>
        <time>2024-07-19T21:24:51.085Z</time>
      </trkpt>
      <trkpt lat="51.478572" lon="5.179727">
        <ele>15.956482</ele>
        <time>2024-07-19T21:24:55.267Z</time>
      </trkpt>
      <trkpt lat="51.478502" lon="5.180073">
        <ele>15.849668</ele>
        <time>2024-07-19T21:24:59.487Z</time>
      </trkpt>
      <trkpt lat="51.478484" lon="5.180422">
        <ele>15.746847</ele>
        <time>2024-07-19T21:25:03.490Z</time>
      </trkpt>
      <trkpt lat="51.478555" lon="5.181336">
        <ele>15.476409</ele>
        <time>2024-07-19T21:25:13.904Z</time>
      </trkpt>
      <trkpt lat="51.478554" lon="5.181615">
        <ele>15.394491</ele>
        <time>2024-07-19T21:25:17.167Z</time>
      </trkpt>
      <trkpt lat="51.478541" lon="5.181840">
        <ele>15.328145</ele>
        <time>2024-07-19T21:25:19.746Z</time>
      </trkpt>
      <trkpt lat="51.478527" lon="5.181976">
        <ele>15.287672</ele>
        <time>2024-07-19T21:25:21.335Z</time>
      </trkpt>
      <trkpt lat="51.478540" lon="5.182158">
        <ele>15.233885</ele>
        <time>2024-07-19T21:25:23.505Z</time>
      </trkpt>
      <trkpt lat="51.478541" lon="5.182511">
        <ele>15.141620</ele>
        <time>2024-07-19T21:25:27.676Z</time>
      </trkpt>
      <trkpt lat="51.478506" lon="5.183255">
        <ele>14.973007</ele>
        <time>2024-07-19T21:25:36.574Z</time>
      </trkpt>
      <trkpt lat="51.478502" lon="5.183280">
        <ele>14.967173</ele>
        <time>2024-07-19T21:25:36.870Z</time>
      </trkpt>
      <trkpt lat="51.478477" lon="5.183531">
        <ele>14.909730</ele>
        <time>2024-07-19T21:25:39.846Z</time>
      </trkpt>
      <trkpt lat="51.478352" lon="5.184147">
        <ele>14.763319</ele>
        <time>2024-07-19T21:25:47.344Z</time>
      </trkpt>
      <trkpt lat="51.478405" lon="5.184173">
        <ele>14.743210</ele>
        <time>2024-07-19T21:25:48.366Z</time>
      </trkpt>
      <trkpt lat="51.478455" lon="5.184200">
        <ele>14.724069</ele>
        <time>2024-07-19T21:25:49.366Z</time>
      </trkpt>
      <trkpt lat="51.478505" lon="5.184223">
        <ele>14.705197</ele>
        <time>2024-07-19T21:25:50.359Z</time>
      </trkpt>
      <trkpt lat="51.478506" lon="5.184399">
        <ele>14.665421</ele>
        <time>2024-07-19T21:25:51.805Z</time>
      </trkpt>
      <trkpt lat="51.479000" lon="5.184996">
        <ele>14.527115</ele>
        <time>2024-07-19T21:26:03.672Z</time>
      </trkpt>
      <trkpt lat="51.479229" lon="5.185291">
        <ele>14.527246</ele>
        <time>2024-07-19T21:26:08.016Z</time>
      </trkpt>
      <trkpt lat="51.479355" lon="5.185565">
        <ele>14.527340</ele>
        <time>2024-07-19T21:26:11.262Z</time>
      </trkpt>
      <trkpt lat="51.481029" lon="5.190141">
        <ele>14.821878</ele>
        <time>2024-07-19T21:27:01.824Z</time>
      </trkpt>
      <trkpt lat="51.482441" lon="5.194021">
        <ele>15.265819</ele>
        <time>2024-07-19T21:27:45.098Z</time>
      </trkpt>
      <trkpt lat="51.482642" lon="5.194516">
        <ele>15.319860</ele>
        <time>2024-07-19T21:27:50.761Z</time>
      </trkpt>
      <trkpt lat="51.482725" lon="5.194648">
        <ele>15.320053</ele>
        <time>2024-07-19T21:27:52.539Z</time>
      </trkpt>
      <trkpt lat="51.482946" lon="5.194896">
        <ele>15.320497</ele>
        <time>2024-07-19T21:27:56.665Z</time>
      </trkpt>
      <trkpt lat="51.483555" lon="5.195480">
        <ele>15.321666</ele>
        <time>2024-07-19T21:28:07.390Z</time>
      </trkpt>
      <trkpt lat="51.483647" lon="5.195334">
        <ele>15.321879</ele>
        <time>2024-07-19T21:28:09.302Z</time>
      </trkpt>
      <trkpt lat="51.483717" lon="5.195322">
        <ele>15.321995</ele>
        <time>2024-07-19T21:28:10.350Z</time>
      </trkpt>
      <trkpt lat="51.486442" lon="5.195956">
        <ele>15.003216</ele>
        <time>2024-07-19T21:28:49.716Z</time>
      </trkpt>
      <trkpt lat="51.487373" lon="5.196485">
        <ele>14.861797</ele>
        <time>2024-07-19T21:29:09.050Z</time>
      </trkpt>
      <trkpt lat="51.487633" lon="5.196649">
        <ele>14.821796</ele>
        <time>2024-07-19T21:29:14.466Z</time>
      </trkpt>
      <trkpt lat="51.488333" lon="5.197272">
        <ele>14.657694</ele>
        <time>2024-07-19T21:29:30.159Z</time>
      </trkpt>
      <trkpt lat="51.488534" lon="5.197341">
        <ele>14.614512</ele>
        <time>2024-07-19T21:29:34.084Z</time>
      </trkpt>
      <trkpt lat="51.489002" lon="5.197339">
        <ele>14.516190</ele>
        <time>2024-07-19T21:29:43.015Z</time>
      </trkpt>
      <trkpt lat="51.489632" lon="5.197336">
        <ele>14.383053</ele>
        <time>2024-07-19T21:29:55.347Z</time>
      </trkpt>
      <trkpt lat="51.490066" lon="5.197176">
        <ele>14.288084</ele>
        <time>2024-07-19T21:30:04.128Z</time>
      </trkpt>
      <trkpt lat="51.491349" lon="5.196447">
        <ele>13.989750</ele>
        <time>2024-07-19T21:30:30.544Z</time>
      </trkpt>
      <trkpt lat="51.491706" lon="5.196181">
        <ele>13.893220</ele>
        <time>2024-07-19T21:30:38.058Z</time>
      </trkpt>
      <trkpt lat="51.492734" lon="5.195301">
        <ele>13.608688</ele>
        <time>2024-07-19T21:31:00.560Z</time>
      </trkpt>
      <trkpt lat="51.493078" lon="5.195081">
        <ele>13.553992</ele>
        <time>2024-07-19T21:31:07.792Z</time>
      </trkpt>
      <trkpt lat="51.493815" lon="5.194906">
        <ele>13.443938</ele>
        <time>2024-07-19T21:31:22.406Z</time>
      </trkpt>
      <trkpt lat="51.494893" lon="5.194264">
        <ele>13.297342</ele>
        <time>2024-07-19T21:31:45.261Z</time>
      </trkpt>
      <trkpt lat="51.495080" lon="5.194228">
        <ele>13.278667</ele>
        <time>2024-07-19T21:31:48.935Z</time>
      </trkpt>
      <trkpt lat="51.496750" lon="5.194476">
        <ele>13.107355</ele>
        <time>2024-07-19T21:32:22.255Z</time>
      </trkpt>
      <trkpt lat="51.498006" lon="5.194752">
        <ele>12.968832</ele>
        <time>2024-07-19T21:32:47.317Z</time>
      </trkpt>
      <trkpt lat="51.499397" lon="5.194964">
        <ele>12.703737</ele>
        <time>2024-07-19T21:33:14.442Z</time>
      </trkpt>
      <trkpt lat="51.500022" lon="5.195059">
        <ele>12.652306</ele>
        <time>2024-07-19T21:33:26.712Z</time>
      </trkpt>
      <trkpt lat="51.498812" lon="5.198838">
        <ele>13.065356</ele>
        <time>2024-07-19T21:34:22.178Z</time>
      </trkpt>
      <trkpt lat="51.498567" lon="5.199880">
        <ele>13.238077</ele>
        <time>2024-07-19T21:34:37.102Z</time>
      </trkpt>
      <trkpt lat="51.498400" lon="5.200850">
        <ele>13.348974</ele>
        <time>2024-07-19T21:34:50.228Z</time>
      </trkpt>
      <trkpt lat="51.498121" lon="5.201593">
        <ele>13.443465</ele>
        <time>2024-07-19T21:35:01.372Z</time>
      </trkpt>
      <trkpt lat="51.498056" lon="5.201939">
        <ele>13.482822</ele>
        <time>2024-07-19T21:35:06.023Z</time>
      </trkpt>
      <trkpt lat="51.498024" lon="5.202452">
        <ele>13.538967</ele>
        <time>2024-07-19T21:35:12.767Z</time>
      </trkpt>
      <trkpt lat="51.498086" lon="5.203043">
        <ele>13.646645</ele>
        <time>2024-07-19T21:35:20.656Z</time>
      </trkpt>
      <trkpt lat="51.498103" lon="5.203640">
        <ele>13.770258</ele>
        <time>2024-07-19T21:35:28.587Z</time>
      </trkpt>
      <trkpt lat="51.498089" lon="5.204467">
        <ele>13.941379</ele>
        <time>2024-07-19T21:35:39.767Z</time>
      </trkpt>
      <trkpt lat="51.498040" lon="5.204711">
        <ele>13.994409</ele>
        <time>2024-07-19T21:35:43.314Z</time>
      </trkpt>
      <trkpt lat="51.497650" lon="5.205997">
        <ele>14.240709</ele>
        <time>2024-07-19T21:36:02.563Z</time>
      </trkpt>
      <trkpt lat="51.497610" lon="5.206313">
        <ele>14.283022</ele>
        <time>2024-07-19T21:36:07.012Z</time>
      </trkpt>
      <trkpt lat="51.497607" lon="5.206563">
        <ele>14.315832</ele>
        <time>2024-07-19T21:36:10.310Z</time>
      </trkpt>
      <trkpt lat="51.497418" lon="5.206594">
        <ele>14.355875</ele>
        <time>2024-07-19T21:36:13.460Z</time>
      </trkpt>
      <trkpt lat="51.497437" lon="5.207135">
        <ele>14.426976</ele>
        <time>2024-07-19T21:36:20.613Z</time>
      </trkpt>
      <trkpt lat="51.497371" lon="5.207546">
        <ele>14.482671</ele>
        <time>2024-07-19T21:36:26.032Z</time>
      </trkpt>
      <trkpt lat="51.497030" lon="5.209660">
        <ele>14.398903</ele>
        <time>2024-07-19T21:36:52.605Z</time>
      </trkpt>
      <trkpt lat="51.496880" lon="5.210540">
        <ele>14.330313</ele>
        <time>2024-07-19T21:37:03.927Z</time>
      </trkpt>
      <trkpt lat="51.496778" lon="5.210925">
        <ele>14.307437</ele>
        <time>2024-07-19T21:37:09.117Z</time>
      </trkpt>
      <trkpt lat="51.496230" lon="5.212620">
        <ele>14.233304</ele>
        <time>2024-07-19T21:37:32.793Z</time>
      </trkpt>
      <trkpt lat="51.495058" lon="5.216464">
        <ele>14.260621</ele>
        <time>2024-07-19T21:38:26.746Z</time>
      </trkpt>
      <trkpt lat="51.492930" lon="5.223440">
        <ele>14.923218</ele>
        <time>2024-07-19T21:40:07.315Z</time>
      </trkpt>
      <trkpt lat="51.492830" lon="5.223620">
        <ele>14.947080</ele>
        <time>2024-07-19T21:40:10.433Z</time>
      </trkpt>
      <trkpt lat="51.490334" lon="5.225975">
        <ele>15.169910</ele>
        <time>2024-07-19T21:41:10.031Z</time>
      </trkpt>
      <trkpt lat="51.490319" lon="5.226089">
        <ele>15.172920</ele>
        <time>2024-07-19T21:41:11.504Z</time>
      </trkpt>
      <trkpt lat="51.490452" lon="5.229576">
        <ele>15.200306</ele>
        <time>2024-07-19T21:41:55.245Z</time>
      </trkpt>
      <trkpt lat="51.490562" lon="5.231255">
        <ele>15.301111</ele>
        <time>2024-07-19T21:42:16.811Z</time>
      </trkpt>
      <trkpt lat="51.484570" lon="5.232470">
        <ele>16.034592</ele>
        <time>2024-07-19T21:44:22.532Z</time>
      </trkpt>
      <trkpt lat="51.484230" lon="5.232600">
        <ele>16.070752</ele>
        <time>2024-07-19T21:44:29.498Z</time>
      </trkpt>
      <trkpt lat="51.482850" lon="5.233330">
        <ele>16.083566</ele>
        <time>2024-07-19T21:44:58.550Z</time>
      </trkpt>
      <trkpt lat="51.480296" lon="5.234847">
        <ele>16.459097</ele>
        <time>2024-07-19T21:45:55.497Z</time>
      </trkpt>
      <trkpt lat="51.480127" lon="5.234966">
        <ele>16.480977</ele>
        <time>2024-07-19T21:45:59.247Z</time>
      </trkpt>
      <trkpt lat="51.479775" lon="5.235258">
        <ele>16.527952</ele>
        <time>2024-07-19T21:46:07.444Z</time>
      </trkpt>
      <trkpt lat="51.479326" lon="5.235690">
        <ele>16.590013</ele>
        <time>2024-07-19T21:46:18.194Z</time>
      </trkpt>
      <trkpt lat="51.476850" lon="5.238590">
        <ele>16.747483</ele>
        <time>2024-07-19T21:47:20.393Z</time>
      </trkpt>
      <trkpt lat="51.476740" lon="5.238800">
        <ele>16.760196</ele>
        <time>2024-07-19T21:47:23.886Z</time>
      </trkpt>
      <trkpt lat="51.475850" lon="5.242048">
        <ele>17.110227</ele>
        <time>2024-07-19T21:47:58.475Z</time>
      </trkpt>
      <trkpt lat="51.475600" lon="5.242780">
        <ele>17.195920</ele>
        <time>2024-07-19T21:48:06.583Z</time>
      </trkpt>
      <trkpt lat="51.475450" lon="5.243100">
        <ele>17.236243</ele>
        <time>2024-07-19T21:48:10.456Z</time>
      </trkpt>
      <trkpt lat="51.475290" lon="5.243340">
        <ele>17.271638</ele>
        <time>2024-07-19T21:48:13.835Z</time>
      </trkpt>
      <trkpt lat="51.474920" lon="5.243770">
        <ele>17.345472</ele>
        <time>2024-07-19T21:48:20.844Z</time>
      </trkpt>
      <trkpt lat="51.474708" lon="5.243952">
        <ele>17.384333</ele>
        <time>2024-07-19T21:48:24.494Z</time>
      </trkpt>
      <trkpt lat="51.474605" lon="5.244016">
        <ele>17.402187</ele>
        <time>2024-07-19T21:48:26.183Z</time>
      </trkpt>
      <trkpt lat="51.474375" lon="5.243987">
        <ele>17.406818</ele>
        <time>2024-07-19T21:48:29.583Z</time>
      </trkpt>
      <trkpt lat="51.473911" lon="5.243870">
        <ele>17.379641</ele>
        <time>2024-07-19T21:48:39.462Z</time>
      </trkpt>
      <trkpt lat="51.473823" lon="5.243816">
        <ele>17.374189</ele>
        <time>2024-07-19T21:48:41.334Z</time>
      </trkpt>
      <trkpt lat="51.473738" lon="5.243702">
        <ele>17.367781</ele>
        <time>2024-07-19T21:48:43.600Z</time>
      </trkpt>
      <trkpt lat="51.473618" lon="5.243506">
        <ele>17.357875</ele>
        <time>2024-07-19T21:48:47.071Z</time>
      </trkpt>
      <trkpt lat="51.473663" lon="5.243260">
        <ele>17.348635</ele>
        <time>2024-07-19T21:48:50.121Z</time>
      </trkpt>
      <trkpt lat="51.473613" lon="5.243218">
        <ele>17.345369</ele>
        <time>2024-07-19T21:48:51.240Z</time>
      </trkpt>
      <trkpt lat="51.473548" lon="5.243193">
        <ele>17.341502</ele>
        <time>2024-07-19T21:48:52.577Z</time>
      </trkpt>
      <trkpt lat="51.473491" lon="5.243171">
        <ele>17.338110</ele>
        <time>2024-07-19T21:48:53.687Z</time>
      </trkpt>
      <trkpt lat="51.473390" lon="5.243534">
        <ele>17.323780</ele>
        <time>2024-07-19T21:48:58.435Z</time>
      </trkpt>
      <trkpt lat="51.473257" lon="5.243848">
        <ele>17.309538</ele>
        <time>2024-07-19T21:49:02.961Z</time>
      </trkpt>
      <trkpt lat="51.473186" lon="5.244118">
        <ele>17.294305</ele>
        <time>2024-07-19T21:49:06.606Z</time>
      </trkpt>
      <trkpt lat="51.472918" lon="5.244418">
        <ele>17.267040</ele>
        <time>2024-07-19T21:49:11.235Z</time>
      </trkpt>
      <trkpt lat="51.472529" lon="5.244693">
        <ele>17.231570</ele>
        <time>2024-07-19T21:49:17.415Z</time>
      </trkpt>
      <trkpt lat="51.472079" lon="5.244999">
        <ele>17.190788</ele>
        <time>2024-07-19T21:49:24.636Z</time>
      </trkpt>
      <trkpt lat="51.471707" lon="5.245357">
        <ele>17.186645</ele>
        <time>2024-07-19T21:49:30.986Z</time>
      </trkpt>
      <trkpt lat="51.471452" lon="5.245651">
        <ele>17.286500</ele>
        <time>2024-07-19T21:49:35.482Z</time>
      </trkpt>
      <trkpt lat="51.471146" lon="5.246041">
        <ele>17.410770</ele>
        <time>2024-07-19T21:49:41.535Z</time>
      </trkpt>
      <trkpt lat="51.470648" lon="5.246773">
        <ele>17.625531</ele>
        <time>2024-07-19T21:49:52.985Z</time>
      </trkpt>
      <trkpt lat="51.470357" lon="5.247139">
        <ele>17.746393</ele>
        <time>2024-07-19T21:49:59.413Z</time>
      </trkpt>
      <trkpt lat="51.470253" lon="5.247249">
        <ele>17.799313</ele>
        <time>2024-07-19T21:50:01.561Z</time>
      </trkpt>
      <trkpt lat="51.469891" lon="5.247623">
        <ele>17.982232</ele>
        <time>2024-07-19T21:50:08.868Z</time>
      </trkpt>
      <trkpt lat="51.468989" lon="5.248308">
        <ele>18.406223</ele>
        <time>2024-07-19T21:50:25.188Z</time>
      </trkpt>
      <trkpt lat="51.468740" lon="5.248530">
        <ele>18.516578</ele>
        <time>2024-07-19T21:50:29.817Z</time>
      </trkpt>
      <trkpt lat="51.468436" lon="5.248957">
        <ele>18.626456</ele>
        <time>2024-07-19T21:50:36.437Z</time>
      </trkpt>
      <trkpt lat="51.467933" lon="5.249914">
        <ele>18.838629</ele>
        <time>2024-07-19T21:50:48.885Z</time>
      </trkpt>
      <trkpt lat="51.467803" lon="5.249931">
        <ele>18.874108</ele>
        <time>2024-07-19T21:50:51.617Z</time>
      </trkpt>
      <trkpt lat="51.467519" lon="5.250043">
        <ele>18.953657</ele>
        <time>2024-07-19T21:50:57.647Z</time>
      </trkpt>
      <trkpt lat="51.467235" lon="5.250156">
        <ele>18.993898</ele>
        <time>2024-07-19T21:51:03.698Z</time>
      </trkpt>
      <trkpt lat="51.467212" lon="5.250146">
        <ele>18.994883</ele>
        <time>2024-07-19T21:51:05.346Z</time>
      </trkpt>
      <trkpt lat="51.467176" lon="5.250307">
        <ele>18.999286</ele>
        <time>2024-07-19T21:51:07.591Z</time>
      </trkpt>
      <trkpt lat="51.467123" lon="5.250262">
        <ele>19.001764</ele>
        <time>2024-07-19T21:51:08.801Z</time>
      </trkpt>
      <trkpt lat="51.466735" lon="5.250231">
        <ele>19.017816</ele>
        <time>2024-07-19T21:51:16.754Z</time>
      </trkpt>
      <trkpt lat="51.466165" lon="5.249944">
        <ele>19.042500</ele>
        <time>2024-07-19T21:51:29.004Z</time>
      </trkpt>
      <trkpt lat="51.466049" lon="5.249924">
        <ele>19.047320</ele>
        <time>2024-07-19T21:51:31.357Z</time>
      </trkpt>
      <trkpt lat="51.465685" lon="5.249994">
        <ele>19.057878</ele>
        <time>2024-07-19T21:51:38.656Z</time>
      </trkpt>
      <trkpt lat="51.465590" lon="5.249972">
        <ele>19.047815</ele>
        <time>2024-07-19T21:51:40.554Z</time>
      </trkpt>
      <trkpt lat="51.465472" lon="5.250113">
        <ele>19.032391</ele>
        <time>2024-07-19T21:51:43.456Z</time>
      </trkpt>
      <trkpt lat="51.465091" lon="5.250360">
        <ele>18.989310</ele>
        <time>2024-07-19T21:51:51.635Z</time>
      </trkpt>
      <trkpt lat="51.464649" lon="5.250710">
        <ele>18.937635</ele>
        <time>2024-07-19T21:52:01.417Z</time>
      </trkpt>
      <trkpt lat="51.464439" lon="5.250898">
        <ele>18.912424</ele>
        <time>2024-07-19T21:52:06.120Z</time>
      </trkpt>
      <trkpt lat="51.464324" lon="5.250994">
        <ele>18.898834</ele>
        <time>2024-07-19T21:52:08.667Z</time>
      </trkpt>
      <trkpt lat="51.463870" lon="5.251384">
        <ele>18.856918</ele>
        <time>2024-07-19T21:52:18.794Z</time>
      </trkpt>
      <trkpt lat="51.463577" lon="5.251481">
        <ele>18.839200</ele>
        <time>2024-07-19T21:52:23.165Z</time>
      </trkpt>
      <trkpt lat="51.463465" lon="5.251515">
        <ele>18.832450</ele>
        <time>2024-07-19T21:52:24.805Z</time>
      </trkpt>
      <trkpt lat="51.463398" lon="5.251584">
        <ele>18.827735</ele>
        <time>2024-07-19T21:52:25.998Z</time>
      </trkpt>
      <trkpt lat="51.463306" lon="5.251853">
        <ele>18.816413</ele>
        <time>2024-07-19T21:52:28.814Z</time>
      </trkpt>
      <trkpt lat="51.463254" lon="5.251940">
        <ele>18.811965</ele>
        <time>2024-07-19T21:52:29.901Z</time>
      </trkpt>
      <trkpt lat="51.463284" lon="5.251997">
        <ele>18.809211</ele>
        <time>2024-07-19T21:52:30.867Z</time>
      </trkpt>
      <trkpt lat="51.463101" lon="5.252181">
        <ele>18.796423</ele>
        <time>2024-07-19T21:52:35.241Z</time>
      </trkpt>
      <trkpt lat="51.462888" lon="5.252490">
        <ele>18.779420</ele>
        <time>2024-07-19T21:52:41.008Z</time>
      </trkpt>
      <trkpt lat="51.462259" lon="5.253797">
        <ele>18.777352</ele>
        <time>2024-07-19T21:52:56.049Z</time>
      </trkpt>
      <trkpt lat="51.461945" lon="5.254386">
        <ele>18.784134</ele>
        <time>2024-07-19T21:53:03.269Z</time>
      </trkpt>
      <trkpt lat="51.461789" lon="5.254612">
        <ele>18.787085</ele>
        <time>2024-07-19T21:53:06.433Z</time>
      </trkpt>
      <trkpt lat="51.461703" lon="5.254785">
        <ele>18.789022</ele>
        <time>2024-07-19T21:53:08.537Z</time>
      </trkpt>
      <trkpt lat="51.461582" lon="5.255150">
        <ele>18.816834</ele>
        <time>2024-07-19T21:53:12.447Z</time>
      </trkpt>
      <trkpt lat="51.461467" lon="5.255342">
        <ele>18.862123</ele>
        <time>2024-07-19T21:53:15.014Z</time>
      </trkpt>
      <trkpt lat="51.460988" lon="5.255950">
        <ele>19.028798</ele>
        <time>2024-07-19T21:53:24.562Z</time>
      </trkpt>
      <trkpt lat="51.460769" lon="5.256176">
        <ele>19.099858</ele>
        <time>2024-07-19T21:53:28.717Z</time>
      </trkpt>
      <trkpt lat="51.461159" lon="5.257132">
        <ele>19.298224</ele>
        <time>2024-07-19T21:53:44.175Z</time>
      </trkpt>
      <trkpt lat="51.461252" lon="5.257460">
        <ele>19.380294</ele>
        <time>2024-07-19T21:53:49.158Z</time>
      </trkpt>
      <trkpt lat="51.461672" lon="5.259757">
        <ele>19.925470</ele>
        <time>2024-07-19T21:54:21.704Z</time>
      </trkpt>
      <trkpt lat="51.461741" lon="5.259971">
        <ele>19.943472</ele>
        <time>2024-07-19T21:54:24.886Z</time>
      </trkpt>
      <trkpt lat="51.461815" lon="5.260113">
        <ele>19.947399</ele>
        <time>2024-07-19T21:54:27.277Z</time>
      </trkpt>
      <trkpt lat="51.462222" lon="5.260675">
        <ele>19.965684</ele>
        <time>2024-07-19T21:54:38.305Z</time>
      </trkpt>
      <trkpt lat="51.462307" lon="5.260922">
        <ele>19.971671</ele>
        <time>2024-07-19T21:54:41.860Z</time>
      </trkpt>
      <trkpt lat="51.462376" lon="5.261280">
        <ele>19.979622</ele>
        <time>2024-07-19T21:54:46.540Z</time>
      </trkpt>
      <trkpt lat="51.462387" lon="5.261347">
        <ele>19.981092</ele>
        <time>2024-07-19T21:54:47.385Z</time>
      </trkpt>
      <trkpt lat="51.462424" lon="5.261541">
        <ele>19.985397</ele>
        <time>2024-07-19T21:54:49.199Z</time>
      </trkpt>
      <trkpt lat="51.462511" lon="5.262007">
        <ele>19.995718</ele>
        <time>2024-07-19T21:54:55.138Z</time>
      </trkpt>
      <trkpt lat="51.463168" lon="5.264899">
        <ele>19.814961</ele>
        <time>2024-07-19T21:55:22.966Z</time>
      </trkpt>
      <trkpt lat="51.463175" lon="5.264921">
        <ele>19.813339</ele>
        <time>2024-07-19T21:55:23.274Z</time>
      </trkpt>
      <trkpt lat="51.463270" lon="5.265256">
        <ele>19.784531</ele>
        <time>2024-07-19T21:55:27.915Z</time>
      </trkpt>
      <trkpt lat="51.463910" lon="5.267028">
        <ele>19.621933</ele>
        <time>2024-07-19T21:55:53.242Z</time>
      </trkpt>
      <trkpt lat="51.463916" lon="5.267045">
        <ele>19.620382</ele>
        <time>2024-07-19T21:55:53.467Z</time>
      </trkpt>
      <trkpt lat="51.464553" lon="5.268819">
        <ele>19.307010</ele>
        <time>2024-07-19T21:56:17.634Z</time>
      </trkpt>
      <trkpt lat="51.464553" lon="5.268819">
        <ele>19.307010</ele>
        <time>2024-07-19T21:56:17.636Z</time>
      </trkpt>
      <trkpt lat="51.465007" lon="5.270211">
        <ele>19.067261</ele>
        <time>2024-07-19T21:56:36.363Z</time>
      </trkpt>
      <trkpt lat="51.465298" lon="5.271358">
        <ele>19.028947</ele>
        <time>2024-07-19T21:56:51.690Z</time>
      </trkpt>
      <trkpt lat="51.465701" lon="5.273111">
        <ele>19.028107</ele>
        <time>2024-07-19T21:57:15.702Z</time>
      </trkpt>
      <trkpt lat="51.465978" lon="5.273824">
        <ele>19.103855</ele>
        <time>2024-07-19T21:57:26.667Z</time>
      </trkpt>
      <trkpt lat="51.466139" lon="5.274452">
        <ele>19.165074</ele>
        <time>2024-07-19T21:57:35.484Z</time>
      </trkpt>
      <trkpt lat="51.465227" lon="5.275068">
        <ele>19.300953</ele>
        <time>2024-07-19T21:57:55.888Z</time>
      </trkpt>
      <trkpt lat="51.465061" lon="5.275079">
        <ele>19.322177</ele>
        <time>2024-07-19T21:57:59.279Z</time>
      </trkpt>
      <trkpt lat="51.464537" lon="5.275057">
        <ele>19.389141</ele>
        <time>2024-07-19T21:58:10.174Z</time>
      </trkpt>
      <trkpt lat="51.461423" lon="5.274318">
        <ele>20.151893</ele>
        <time>2024-07-19T21:59:17.019Z</time>
      </trkpt>
      <trkpt lat="51.461224" lon="5.274293">
        <ele>20.217005</ele>
        <time>2024-07-19T21:59:21.299Z</time>
      </trkpt>
      <trkpt lat="51.460882" lon="5.274375">
        <ele>20.329803</ele>
        <time>2024-07-19T21:59:28.744Z</time>
      </trkpt>
      <trkpt lat="51.460354" lon="5.274589">
        <ele>20.507443</ele>
        <time>2024-07-19T21:59:37.595Z</time>
      </trkpt>
      <trkpt lat="51.460218" lon="5.274689">
        <ele>20.547076</ele>
        <time>2024-07-19T21:59:40.024Z</time>
      </trkpt>
      <trkpt lat="51.460091" lon="5.274839">
        <ele>20.585641</ele>
        <time>2024-07-19T21:59:42.582Z</time>
      </trkpt>
      <trkpt lat="51.459947" lon="5.275070">
        <ele>20.635434</ele>
        <time>2024-07-19T21:59:45.907Z</time>
      </trkpt>
      <trkpt lat="51.459850" lon="5.275155">
        <ele>20.662463</ele>
        <time>2024-07-19T21:59:47.674Z</time>
      </trkpt>
      <trkpt lat="51.459808" lon="5.275235">
        <ele>20.678405</ele>
        <time>2024-07-19T21:59:48.750Z</time>
      </trkpt>
      <trkpt lat="51.459667" lon="5.274970">
        <ele>20.731507</ele>
        <time>2024-07-19T21:59:52.263Z</time>
      </trkpt>
      <trkpt lat="51.459632" lon="5.274833">
        <ele>20.754071</ele>
        <time>2024-07-19T21:59:53.751Z</time>
      </trkpt>
      <trkpt lat="51.459413" lon="5.273356">
        <ele>20.948793</ele>
        <time>2024-07-19T22:00:08.337Z</time>
      </trkpt>
      <trkpt lat="51.459144" lon="5.273199">
        <ele>20.919817</ele>
        <time>2024-07-19T22:00:12.516Z</time>
      </trkpt>
      <trkpt lat="51.459121" lon="5.273189">
        <ele>20.917405</ele>
        <time>2024-07-19T22:00:12.854Z</time>
      </trkpt>
      <trkpt lat="51.458481" lon="5.272926">
        <ele>20.850529</ele>
        <time>2024-07-19T22:00:22.393Z</time>
      </trkpt>
      <trkpt lat="51.458315" lon="5.272914">
        <ele>20.833707</ele>
        <time>2024-07-19T22:00:24.764Z</time>
      </trkpt>
      <trkpt lat="51.457678" lon="5.272872">
        <ele>20.754696</ele>
        <time>2024-07-19T22:00:33.730Z</time>
      </trkpt>
      <trkpt lat="51.456459" lon="5.272685">
        <ele>20.413824</ele>
        <time>2024-07-19T22:00:50.645Z</time>
      </trkpt>
      <trkpt lat="51.456116" lon="5.272664">
        <ele>20.318275</ele>
        <time>2024-07-19T22:00:55.457Z</time>
      </trkpt>
      <trkpt lat="51.455628" lon="5.272815">
        <ele>20.192182</ele>
        <time>2024-07-19T22:01:02.408Z</time>
      </trkpt>
      <trkpt lat="51.455323" lon="5.272828">
        <ele>20.117996</ele>
        <time>2024-07-19T22:01:06.677Z</time>
      </trkpt>
      <trkpt lat="51.453551" lon="5.272521">
        <ele>19.701216</ele>
        <time>2024-07-19T22:01:31.568Z</time>
      </trkpt>
      <trkpt lat="51.453308" lon="5.272591">
        <ele>19.647617</ele>
        <time>2024-07-19T22:01:35.041Z</time>
      </trkpt>
      <trkpt lat="51.451611" lon="5.273635">
        <ele>19.374223</ele>
        <time>2024-07-19T22:02:00.884Z</time>
      </trkpt>
      <trkpt lat="51.449550" lon="5.274608">
        <ele>19.429686</ele>
        <time>2024-07-19T22:02:32.418Z</time>
      </trkpt>
      <trkpt lat="51.446560" lon="5.276036">
        <ele>20.219123</ele>
        <time>2024-07-19T22:03:22.753Z</time>
      </trkpt>
      <trkpt lat="51.445336" lon="5.276696">
        <ele>20.450125</ele>
        <time>2024-07-19T22:03:42.663Z</time>
      </trkpt>
      <trkpt lat="51.445221" lon="5.276758">
        <ele>20.454075</ele>
        <time>2024-07-19T22:03:44.492Z</time>
      </trkpt>
      <trkpt lat="51.442731" lon="5.278013">
        <ele>20.601302</ele>
        <time>2024-07-19T22:04:23.218Z</time>
      </trkpt>
      <trkpt lat="51.441502" lon="5.278383">
        <ele>20.785946</ele>
        <time>2024-07-19T22:04:42.837Z</time>
      </trkpt>
      <trkpt lat="51.441233" lon="5.278457">
        <ele>20.842112</ele>
        <time>2024-07-19T22:04:47.305Z</time>
      </trkpt>
      <trkpt lat="51.440966" lon="5.278530">
        <ele>20.897851</ele>
        <time>2024-07-19T22:04:51.635Z</time>
      </trkpt>
      <trkpt lat="51.440670" lon="5.278611">
        <ele>20.959645</ele>
        <time>2024-07-19T22:04:56.366Z</time>
      </trkpt>
      <trkpt lat="51.440310" lon="5.278710">
        <ele>21.012505</ele>
        <time>2024-07-19T22:05:02.060Z</time>
      </trkpt>
      <trkpt lat="51.439833" lon="5.278840">
        <ele>20.938284</ele>
        <time>2024-07-19T22:05:09.460Z</time>
      </trkpt>
      <trkpt lat="51.436361" lon="5.279947">
        <ele>20.347842</ele>
        <time>2024-07-19T22:05:58.382Z</time>
      </trkpt>
      <trkpt lat="51.436197" lon="5.280060">
        <ele>20.381834</ele>
        <time>2024-07-19T22:06:01.136Z</time>
      </trkpt>
      <trkpt lat="51.435807" lon="5.280328">
        <ele>20.462636</ele>
        <time>2024-07-19T22:06:07.874Z</time>
      </trkpt>
      <trkpt lat="51.435611" lon="5.280409">
        <ele>20.501182</ele>
        <time>2024-07-19T22:06:11.236Z</time>
      </trkpt>
      <trkpt lat="51.434224" lon="5.280468">
        <ele>20.970879</ele>
        <time>2024-07-19T22:06:34.856Z</time>
      </trkpt>
      <trkpt lat="51.434051" lon="5.280515">
        <ele>21.045142</ele>
        <time>2024-07-19T22:06:37.910Z</time>
      </trkpt>
      <trkpt lat="51.432776" lon="5.281091">
        <ele>21.313752</ele>
        <time>2024-07-19T22:06:58.664Z</time>
      </trkpt>
      <trkpt lat="51.432548" lon="5.281092">
        <ele>21.296244</ele>
        <time>2024-07-19T22:07:01.998Z</time>
      </trkpt>
      <trkpt lat="51.432501" lon="5.281068">
        <ele>21.292456</ele>
        <time>2024-07-19T22:07:02.685Z</time>
      </trkpt>
      <trkpt lat="51.432422" lon="5.281018">
        <ele>21.285935</ele>
        <time>2024-07-19T22:07:03.850Z</time>
      </trkpt>
      <trkpt lat="51.431002" lon="5.279010">
        <ele>21.124707</ele>
        <time>2024-07-19T22:07:30.503Z</time>
      </trkpt>
      <trkpt lat="51.430855" lon="5.278903">
        <ele>21.109851</ele>
        <time>2024-07-19T22:07:32.827Z</time>
      </trkpt>
      <trkpt lat="51.429818" lon="5.279234">
        <ele>21.126253</ele>
        <time>2024-07-19T22:07:48.671Z</time>
      </trkpt>
      <trkpt lat="51.429326" lon="5.279409">
        <ele>21.204243</ele>
        <time>2024-07-19T22:07:56.380Z</time>
      </trkpt>
      <trkpt lat="51.429252" lon="5.279465">
        <ele>21.216905</ele>
        <time>2024-07-19T22:07:57.657Z</time>
      </trkpt>
      <trkpt lat="51.429174" lon="5.279575">
        <ele>21.232979</ele>
        <time>2024-07-19T22:07:59.271Z</time>
      </trkpt>
      <trkpt lat="51.428310" lon="5.281347">
        <ele>21.641584</ele>
        <time>2024-07-19T22:08:21.484Z</time>
      </trkpt>
      <trkpt lat="51.428002" lon="5.281657">
        <ele>21.790199</ele>
        <time>2024-07-19T22:08:27.530Z</time>
      </trkpt>
      <trkpt lat="51.427488" lon="5.281998">
        <ele>22.017537</ele>
        <time>2024-07-19T22:08:37.152Z</time>
      </trkpt>
      <trkpt lat="51.426081" lon="5.282681">
        <ele>22.663360</ele>
        <time>2024-07-19T22:09:01.869Z</time>
      </trkpt>
      <trkpt lat="51.425863" lon="5.282731">
        <ele>22.760731</ele>
        <time>2024-07-19T22:09:05.427Z</time>
      </trkpt>
      <trkpt lat="51.425647" lon="5.282618">
        <ele>22.861190</ele>
        <time>2024-07-19T22:09:09.125Z</time>
      </trkpt>
      <trkpt lat="51.425551" lon="5.282557">
        <ele>22.862255</ele>
        <time>2024-07-19T22:09:11.270Z</time>
      </trkpt>
      <trkpt lat="51.425438" lon="5.282860">
        <ele>22.859002</ele>
        <time>2024-07-19T22:09:14.730Z</time>
      </trkpt>
      <trkpt lat="51.425285" lon="5.283255">
        <ele>22.854718</ele>
        <time>2024-07-19T22:09:19.058Z</time>
      </trkpt>
      <trkpt lat="51.425177" lon="5.283458">
        <ele>22.852259</ele>
        <time>2024-07-19T22:09:21.506Z</time>
      </trkpt>
      <trkpt lat="51.424940" lon="5.283860">
        <ele>22.847162</ele>
        <time>2024-07-19T22:09:26.412Z</time>
      </trkpt>
      <trkpt lat="51.424638" lon="5.284222">
        <ele>22.841591</ele>
        <time>2024-07-19T22:09:31.636Z</time>
      </trkpt>
      <trkpt lat="51.424292" lon="5.284634">
        <ele>22.861670</ele>
        <time>2024-07-19T22:09:37.822Z</time>
      </trkpt>
      <trkpt lat="51.423901" lon="5.284948">
        <ele>22.945290</ele>
        <time>2024-07-19T22:09:44.580Z</time>
      </trkpt>
      <trkpt lat="51.423375" lon="5.285368">
        <ele>23.057654</ele>
        <time>2024-07-19T22:09:54.057Z</time>
      </trkpt>
      <trkpt lat="51.422697" lon="5.285730">
        <ele>23.211300</ele>
        <time>2024-07-19T22:10:05.334Z</time>
      </trkpt>
      <trkpt lat="51.422262" lon="5.285904">
        <ele>23.407153</ele>
        <time>2024-07-19T22:10:12.528Z</time>
      </trkpt>
      <trkpt lat="51.421522" lon="5.286150">
        <ele>23.737297</ele>
        <time>2024-07-19T22:10:25.025Z</time>
      </trkpt>
      <trkpt lat="51.421233" lon="5.286320">
        <ele>23.871773</ele>
        <time>2024-07-19T22:10:30.259Z</time>
      </trkpt>
      <trkpt lat="51.421059" lon="5.286413">
        <ele>23.951896</ele>
        <time>2024-07-19T22:10:33.422Z</time>
      </trkpt>
      <trkpt lat="51.420890" lon="5.286530">
        <ele>24.041063</ele>
        <time>2024-07-19T22:10:36.593Z</time>
      </trkpt>
      <trkpt lat="51.420559" lon="5.286864">
        <ele>24.234738</ele>
        <time>2024-07-19T22:10:43.370Z</time>
      </trkpt>
      <trkpt lat="51.420429" lon="5.287009">
        <ele>24.313161</ele>
        <time>2024-07-19T22:10:46.145Z</time>
      </trkpt>
      <trkpt lat="51.419336" lon="5.288191">
        <ele>24.866106</ele>
        <time>2024-07-19T22:11:07.995Z</time>
      </trkpt>
      <trkpt lat="51.419412" lon="5.288487">
        <ele>24.873895</ele>
        <time>2024-07-19T22:11:12.289Z</time>
      </trkpt>
      <trkpt lat="51.419553" lon="5.289075">
        <ele>24.889223</ele>
        <time>2024-07-19T22:11:20.532Z</time>
      </trkpt>
      <trkpt lat="51.419641" lon="5.289494">
        <ele>24.899981</ele>
        <time>2024-07-19T22:11:26.189Z</time>
      </trkpt>
      <trkpt lat="51.419664" lon="5.289624">
        <ele>24.903269</ele>
        <time>2024-07-19T22:11:27.418Z</time>
      </trkpt>
      <trkpt lat="51.419712" lon="5.289855">
        <ele>24.909193</ele>
        <time>2024-07-19T22:11:29.632Z</time>
      </trkpt>
      <trkpt lat="51.419853" lon="5.290558">
        <ele>24.927161</ele>
        <time>2024-07-19T22:11:36.082Z</time>
      </trkpt>
      <trkpt lat="51.420299" lon="5.292116">
        <ele>24.481530</ele>
        <time>2024-07-19T22:11:50.235Z</time>
      </trkpt>
      <trkpt lat="51.420351" lon="5.292287">
        <ele>24.431317</ele>
        <time>2024-07-19T22:11:51.828Z</time>
      </trkpt>
      <trkpt lat="51.420320" lon="5.292439">
        <ele>24.389109</ele>
        <time>2024-07-19T22:11:53.702Z</time>
      </trkpt>
      <trkpt lat="51.420938" lon="5.293894">
        <ele>24.036562</ele>
        <time>2024-07-19T22:12:14.406Z</time>
      </trkpt>
      <trkpt lat="51.421627" lon="5.295496">
        <ele>23.760822</ele>
        <time>2024-07-19T22:12:38.028Z</time>
      </trkpt>
      <trkpt lat="51.422296" lon="5.296815">
        <ele>23.870885</ele>
        <time>2024-07-19T22:12:59.677Z</time>
      </trkpt>
      <trkpt lat="51.422342" lon="5.296911">
        <ele>23.879039</ele>
        <time>2024-07-19T22:13:01.214Z</time>
      </trkpt>
      <trkpt lat="51.422506" lon="5.297231">
        <ele>23.906938</ele>
        <time>2024-07-19T22:13:06.702Z</time>
      </trkpt>
      <trkpt lat="51.422727" lon="5.297517">
        <ele>23.937611</ele>
        <time>2024-07-19T22:13:12.740Z</time>
      </trkpt>
      <trkpt lat="51.422977" lon="5.297795">
        <ele>24.001005</ele>
        <time>2024-07-19T22:13:19.212Z</time>
      </trkpt>
      <trkpt lat="51.423921" lon="5.298867">
        <ele>24.333354</ele>
        <time>2024-07-19T22:13:43.904Z</time>
      </trkpt>
      <trkpt lat="51.425123" lon="5.300124">
        <ele>24.555041</ele>
        <time>2024-07-19T22:14:14.729Z</time>
      </trkpt>
      <trkpt lat="51.425308" lon="5.300356">
        <ele>24.576048</ele>
        <time>2024-07-19T22:14:19.464Z</time>
      </trkpt>
      <trkpt lat="51.425551" lon="5.300662">
        <ele>24.603685</ele>
        <time>2024-07-19T22:14:25.594Z</time>
      </trkpt>
      <trkpt lat="51.426167" lon="5.301564">
        <ele>24.501448</ele>
        <time>2024-07-19T22:14:41.789Z</time>
      </trkpt>
      <trkpt lat="51.427284" lon="5.303337">
        <ele>24.193417</ele>
        <time>2024-07-19T22:15:12.006Z</time>
      </trkpt>
      <trkpt lat="51.427973" lon="5.304480">
        <ele>24.158843</ele>
        <time>2024-07-19T22:15:31.857Z</time>
      </trkpt>
      <trkpt lat="51.428808" lon="5.306071">
        <ele>24.231892</ele>
        <time>2024-07-19T22:15:58.731Z</time>
      </trkpt>
      <trkpt lat="51.429204" lon="5.306881">
        <ele>24.303825</ele>
        <time>2024-07-19T22:16:12.045Z</time>
      </trkpt>
      <trkpt lat="51.429263" lon="5.307047">
        <ele>24.317178</ele>
        <time>2024-07-19T22:16:14.557Z</time>
      </trkpt>
      <trkpt lat="51.429585" lon="5.307678">
        <ele>24.355848</ele>
        <time>2024-07-19T22:16:22.424Z</time>
      </trkpt>
      <trkpt lat="51.430507" lon="5.309481">
        <ele>24.422135</ele>
        <time>2024-07-19T22:16:44.280Z</time>
      </trkpt>
      <trkpt lat="51.431322" lon="5.311047">
        <ele>23.890521</ele>
        <time>2024-07-19T22:17:01.973Z</time>
      </trkpt>
      <trkpt lat="51.431449" lon="5.311361">
        <ele>23.786739</ele>
        <time>2024-07-19T22:17:04.948Z</time>
      </trkpt>
      <trkpt lat="51.432115" lon="5.312616">
        <ele>23.165462</ele>
        <time>2024-07-19T22:17:17.576Z</time>
      </trkpt>
      <trkpt lat="51.432416" lon="5.313060">
        <ele>22.882501</ele>
        <time>2024-07-19T22:17:22.683Z</time>
      </trkpt>
      <trkpt lat="51.433075" lon="5.314061">
        <ele>22.359503</ele>
        <time>2024-07-19T22:17:39.438Z</time>
      </trkpt>
      <trkpt lat="51.434192" lon="5.315714">
        <ele>22.182361</ele>
        <time>2024-07-19T22:18:10.148Z</time>
      </trkpt>
      <trkpt lat="51.434435" lon="5.316044">
        <ele>22.122281</ele>
        <time>2024-07-19T22:18:16.861Z</time>
      </trkpt>
      <trkpt lat="51.435380" lon="5.317534">
        <ele>21.830743</ele>
        <time>2024-07-19T22:18:42.511Z</time>
      </trkpt>
      <trkpt lat="51.435716" lon="5.317939">
        <ele>21.751440</ele>
        <time>2024-07-19T22:18:50.253Z</time>
      </trkpt>
      <trkpt lat="51.436574" lon="5.318627">
        <ele>21.615248</ele>
        <time>2024-07-19T22:19:08.468Z</time>
      </trkpt>
      <trkpt lat="51.436775" lon="5.318835">
        <ele>21.581287</ele>
        <time>2024-07-19T22:19:13.257Z</time>
      </trkpt>
      <trkpt lat="51.436945" lon="5.319139">
        <ele>21.545140</ele>
        <time>2024-07-19T22:19:18.425Z</time>
      </trkpt>
      <trkpt lat="51.436980" lon="5.319202">
        <ele>21.537671</ele>
        <time>2024-07-19T22:19:19.503Z</time>
      </trkpt>
      <trkpt lat="51.437108" lon="5.319519">
        <ele>21.594049</ele>
        <time>2024-07-19T22:19:24.362Z</time>
      </trkpt>
      <trkpt lat="51.437598" lon="5.321003">
        <ele>22.291342</ele>
        <time>2024-07-19T22:19:48.496Z</time>
      </trkpt>
      <trkpt lat="51.437825" lon="5.321573">
        <ele>22.572193</ele>
        <time>2024-07-19T22:19:58.742Z</time>
      </trkpt>
      <trkpt lat="51.438151" lon="5.322679">
        <ele>22.950474</ele>
        <time>2024-07-19T22:20:16.904Z</time>
      </trkpt>
      <trkpt lat="51.438556" lon="5.324018">
        <ele>23.347084</ele>
        <time>2024-07-19T22:20:37.263Z</time>
      </trkpt>
      <trkpt lat="51.439053" lon="5.325666">
        <ele>23.161242</ele>
        <time>2024-07-19T22:20:59.491Z</time>
      </trkpt>
      <trkpt lat="51.439157" lon="5.326021">
        <ele>23.063377</ele>
        <time>2024-07-19T22:21:03.942Z</time>
      </trkpt>
      <trkpt lat="51.439345" lon="5.326651">
        <ele>22.889111</ele>
        <time>2024-07-19T22:21:11.708Z</time>
      </trkpt>
      <trkpt lat="51.440008" lon="5.328417">
        <ele>22.276178</ele>
        <time>2024-07-19T22:21:35.325Z</time>
      </trkpt>
      <trkpt lat="51.440108" lon="5.328747">
        <ele>22.161628</ele>
        <time>2024-07-19T22:21:39.569Z</time>
      </trkpt>
      <trkpt lat="51.440184" lon="5.328875">
        <ele>22.106441</ele>
        <time>2024-07-19T22:21:41.591Z</time>
      </trkpt>
      <trkpt lat="51.440295" lon="5.329160">
        <ele>22.001529</ele>
        <time>2024-07-19T22:21:45.493Z</time>
      </trkpt>
      <trkpt lat="51.441541" lon="5.332452">
        <ele>21.321255</ele>
        <time>2024-07-19T22:22:31.607Z</time>
      </trkpt>
      <trkpt lat="51.441881" lon="5.333591">
        <ele>21.175803</ele>
        <time>2024-07-19T22:22:47.024Z</time>
      </trkpt>
      <trkpt lat="51.441978" lon="5.333842">
        <ele>21.141788</ele>
        <time>2024-07-19T22:22:50.624Z</time>
      </trkpt>
      <trkpt lat="51.442073" lon="5.333996">
        <ele>21.116834</ele>
        <time>2024-07-19T22:22:53.320Z</time>
      </trkpt>
      <trkpt lat="51.442340" lon="5.334870">
        <ele>21.047635</ele>
        <time>2024-07-19T22:23:02.086Z</time>
      </trkpt>
      <trkpt lat="51.442359" lon="5.334965">
        <ele>21.046978</ele>
        <time>2024-07-19T22:23:03.021Z</time>
      </trkpt>
      <trkpt lat="51.442362" lon="5.334994">
        <ele>21.046784</ele>
        <time>2024-07-19T22:23:03.301Z</time>
      </trkpt>
      <trkpt lat="51.442280" lon="5.335294">
        <ele>21.044626</ele>
        <time>2024-07-19T22:23:06.200Z</time>
      </trkpt>
      <trkpt lat="51.442242" lon="5.335501">
        <ele>21.043204</ele>
        <time>2024-07-19T22:23:08.178Z</time>
      </trkpt>
      <trkpt lat="51.442020" lon="5.336280">
        <ele>21.037561</ele>
        <time>2024-07-19T22:23:16.029Z</time>
      </trkpt>
      <trkpt lat="51.441969" lon="5.336607">
        <ele>21.035340</ele>
        <time>2024-07-19T22:23:19.237Z</time>
      </trkpt>
      <trkpt lat="51.441961" lon="5.337103">
        <ele>21.032071</ele>
        <time>2024-07-19T22:23:23.930Z</time>
      </trkpt>
      <trkpt lat="51.441989" lon="5.337564">
        <ele>21.045226</ele>
        <time>2024-07-19T22:23:28.253Z</time>
      </trkpt>
      <trkpt lat="51.442083" lon="5.337949">
        <ele>21.062507</ele>
        <time>2024-07-19T22:23:32.164Z</time>
      </trkpt>
      <trkpt lat="51.442582" lon="5.339371">
        <ele>21.130707</ele>
        <time>2024-07-19T22:23:47.601Z</time>
      </trkpt>
      <trkpt lat="51.442638" lon="5.339571">
        <ele>21.139871</ele>
        <time>2024-07-19T22:23:49.658Z</time>
      </trkpt>
      <trkpt lat="51.442664" lon="5.339684">
        <ele>21.144905</ele>
        <time>2024-07-19T22:23:50.736Z</time>
      </trkpt>
      <trkpt lat="51.442707" lon="5.339899">
        <ele>21.150544</ele>
        <time>2024-07-19T22:23:52.908Z</time>
      </trkpt>
      <trkpt lat="51.442738" lon="5.340554">
        <ele>21.136546</ele>
        <time>2024-07-19T22:23:59.017Z</time>
      </trkpt>
      <trkpt lat="51.442761" lon="5.341112">
        <ele>21.124630</ele>
        <time>2024-07-19T22:24:04.111Z</time>
      </trkpt>
      <trkpt lat="51.442767" lon="5.341263">
        <ele>21.121405</ele>
        <time>2024-07-19T22:24:05.531Z</time>
      </trkpt>
      <trkpt lat="51.443495" lon="5.341011">
        <ele>21.095944</ele>
        <time>2024-07-19T22:24:16.569Z</time>
      </trkpt>
      <trkpt lat="51.443962" lon="5.340869">
        <ele>21.038548</ele>
        <time>2024-07-19T22:24:23.214Z</time>
      </trkpt>
      <trkpt lat="51.444497" lon="5.340753">
        <ele>20.948719</ele>
        <time>2024-07-19T22:24:30.709Z</time>
      </trkpt>
      <trkpt lat="51.444904" lon="5.340665">
        <ele>20.880386</ele>
        <time>2024-07-19T22:24:36.526Z</time>
      </trkpt>
      <trkpt lat="51.444973" lon="5.340594">
        <ele>20.866746</ele>
        <time>2024-07-19T22:24:37.654Z</time>
      </trkpt>
      <trkpt lat="51.445137" lon="5.340683">
        <ele>20.837939</ele>
        <time>2024-07-19T22:24:40.276Z</time>
      </trkpt>
      <trkpt lat="51.445269" lon="5.340706">
        <ele>20.815847</ele>
        <time>2024-07-19T22:24:42.172Z</time>
      </trkpt>
      <trkpt lat="51.445482" lon="5.340758">
        <ele>20.783664</ele>
        <time>2024-07-19T22:24:45.377Z</time>
      </trkpt>
      <trkpt lat="51.445673" lon="5.340708">
        <ele>20.762142</ele>
        <time>2024-07-19T22:24:48.164Z</time>
      </trkpt>
      <trkpt lat="51.445725" lon="5.340821">
        <ele>20.752405</ele>
        <time>2024-07-19T22:24:49.480Z</time>
      </trkpt>
      <trkpt lat="51.445789" lon="5.340887">
        <ele>20.743944</ele>
        <time>2024-07-19T22:24:50.615Z</time>
      </trkpt>
      <trkpt lat="51.446138" lon="5.341008">
        <ele>20.704235</ele>
        <time>2024-07-19T22:24:55.693Z</time>
      </trkpt>
      <trkpt lat="51.446419" lon="5.341167">
        <ele>20.671097</ele>
        <time>2024-07-19T22:24:59.838Z</time>
      </trkpt>
      <trkpt lat="51.446593" lon="5.341362">
        <ele>20.647493</ele>
        <time>2024-07-19T22:25:02.795Z</time>
      </trkpt>
      <trkpt lat="51.447362" lon="5.342691">
        <ele>20.457715</ele>
        <time>2024-07-19T22:25:19.437Z</time>
      </trkpt>
      <trkpt lat="51.447448" lon="5.342862">
        <ele>20.428386</ele>
        <time>2024-07-19T22:25:21.352Z</time>
      </trkpt>
      <trkpt lat="51.447442" lon="5.342977">
        <ele>20.412983</ele>
        <time>2024-07-19T22:25:22.396Z</time>
      </trkpt>
      <trkpt lat="51.448789" lon="5.345290">
        <ele>19.968686</ele>
        <time>2024-07-19T22:25:49.589Z</time>
      </trkpt>
      <trkpt lat="51.448943" lon="5.345556">
        <ele>19.915329</ele>
        <time>2024-07-19T22:25:52.703Z</time>
      </trkpt>
      <trkpt lat="51.449011" lon="5.345732">
        <ele>19.884896</ele>
        <time>2024-07-19T22:25:54.502Z</time>
      </trkpt>
      <trkpt lat="51.449138" lon="5.345932">
        <ele>19.842934</ele>
        <time>2024-07-19T22:25:56.979Z</time>
      </trkpt>
      <trkpt lat="51.449944" lon="5.347329">
        <ele>19.786862</ele>
        <time>2024-07-19T22:26:14.456Z</time>
      </trkpt>
      <trkpt lat="51.450232" lon="5.347940">
        <ele>19.789535</ele>
        <time>2024-07-19T22:26:21.533Z</time>
      </trkpt>
      <trkpt lat="51.450369" lon="5.348297">
        <ele>19.790999</ele>
        <time>2024-07-19T22:26:25.556Z</time>
      </trkpt>
      <trkpt lat="51.450911" lon="5.349825">
        <ele>19.898427</ele>
        <time>2024-07-19T22:26:42.321Z</time>
      </trkpt>
      <trkpt lat="51.451005" lon="5.350103">
        <ele>19.920277</ele>
        <time>2024-07-19T22:26:45.342Z</time>
      </trkpt>
      <trkpt lat="51.451095" lon="5.350249">
        <ele>19.934463</ele>
        <time>2024-07-19T22:26:47.355Z</time>
      </trkpt>
      <trkpt lat="51.451442" lon="5.351263">
        <ele>20.019998</ele>
        <time>2024-07-19T22:26:58.077Z</time>
      </trkpt>
      <trkpt lat="51.451523" lon="5.351427">
        <ele>20.037948</ele>
        <time>2024-07-19T22:27:00.051Z</time>
      </trkpt>
      <trkpt lat="51.451971" lon="5.352752">
        <ele>20.167257</ele>
        <time>2024-07-19T22:27:14.520Z</time>
      </trkpt>
      <trkpt lat="51.452150" lon="5.353274">
        <ele>20.218365</ele>
        <time>2024-07-19T22:27:20.333Z</time>
      </trkpt>
      <trkpt lat="51.452355" lon="5.353813">
        <ele>20.294996</ele>
        <time>2024-07-19T22:27:26.541Z</time>
      </trkpt>
      <trkpt lat="51.453448" lon="5.356850">
        <ele>20.736611</ele>
        <time>2024-07-19T22:28:00.834Z</time>
      </trkpt>
      <trkpt lat="51.453513" lon="5.357134">
        <ele>20.762199</ele>
        <time>2024-07-19T22:28:03.719Z</time>
      </trkpt>
      <trkpt lat="51.453302" lon="5.357395">
        <ele>20.798358</ele>
        <time>2024-07-19T22:28:07.809Z</time>
      </trkpt>
      <trkpt lat="51.453150" lon="5.357550">
        <ele>20.822801</ele>
        <time>2024-07-19T22:28:10.615Z</time>
      </trkpt>
      <trkpt lat="51.452790" lon="5.357830">
        <ele>20.877098</ele>
        <time>2024-07-19T22:28:16.717Z</time>
      </trkpt>
      <trkpt lat="51.452220" lon="5.358220">
        <ele>20.930399</ele>
        <time>2024-07-19T22:28:26.080Z</time>
      </trkpt>
      <trkpt lat="51.451830" lon="5.358590">
        <ele>20.963332</ele>
        <time>2024-07-19T22:28:32.988Z</time>
      </trkpt>
      <trkpt lat="51.451247" lon="5.359307">
        <ele>21.016724</ele>
        <time>2024-07-19T22:28:43.973Z</time>
      </trkpt>
      <trkpt lat="51.450352" lon="5.360408">
        <ele>21.115616</ele>
        <time>2024-07-19T22:29:01.171Z</time>
      </trkpt>
      <trkpt lat="51.450220" lon="5.360570">
        <ele>21.130492</ele>
        <time>2024-07-19T22:29:03.741Z</time>
      </trkpt>
      <trkpt lat="51.449870" lon="5.360840">
        <ele>21.165256</ele>
        <time>2024-07-19T22:29:09.572Z</time>
      </trkpt>
      <trkpt lat="51.448960" lon="5.361330">
        <ele>21.110328</ele>
        <time>2024-07-19T22:29:23.761Z</time>
      </trkpt>
      <trkpt lat="51.448620" lon="5.361400">
        <ele>21.074054</ele>
        <time>2024-07-19T22:29:28.731Z</time>
      </trkpt>
      <trkpt lat="51.447220" lon="5.361410">
        <ele>20.915777</ele>
        <time>2024-07-19T22:29:48.567Z</time>
      </trkpt>
      <trkpt lat="51.446470" lon="5.361380">
        <ele>20.824968</ele>
        <time>2024-07-19T22:29:59.467Z</time>
      </trkpt>
      <trkpt lat="51.443550" lon="5.361160">
        <ele>20.498263</ele>
        <time>2024-07-19T22:30:41.862Z</time>
      </trkpt>
      <trkpt lat="51.443320" lon="5.361100">
        <ele>20.451131</ele>
        <time>2024-07-19T22:30:45.073Z</time>
      </trkpt>
      <trkpt lat="51.443030" lon="5.360970">
        <ele>20.390226</ele>
        <time>2024-07-19T22:30:49.205Z</time>
      </trkpt>
      <trkpt lat="51.442790" lon="5.360790">
        <ele>20.336640</ele>
        <time>2024-07-19T22:30:52.837Z</time>
      </trkpt>
      <trkpt lat="51.442560" lon="5.360590">
        <ele>20.284254</ele>
        <time>2024-07-19T22:30:56.405Z</time>
      </trkpt>
      <trkpt lat="51.440430" lon="5.358160">
        <ele>20.268716</ele>
        <time>2024-07-19T22:31:34.983Z</time>
      </trkpt>
      <trkpt lat="51.439800" lon="5.357540">
        <ele>20.330550</ele>
        <time>2024-07-19T22:31:46.478Z</time>
      </trkpt>
      <trkpt lat="51.439400" lon="5.357330">
        <ele>20.364378</ele>
        <time>2024-07-19T22:31:52.900Z</time>
      </trkpt>
      <trkpt lat="51.438471" lon="5.357099">
        <ele>20.435790</ele>
        <time>2024-07-19T22:32:07.204Z</time>
      </trkpt>
      <trkpt lat="51.438324" lon="5.357090">
        <ele>20.446964</ele>
        <time>2024-07-19T22:32:09.385Z</time>
      </trkpt>
      <trkpt lat="51.438266" lon="5.357129">
        <ele>20.451741</ele>
        <time>2024-07-19T22:32:10.309Z</time>
      </trkpt>
      <trkpt lat="51.438151" lon="5.357287">
        <ele>20.463243</ele>
        <time>2024-07-19T22:32:12.564Z</time>
      </trkpt>
      <trkpt lat="51.436202" lon="5.362280">
        <ele>20.373827</ele>
        <time>2024-07-19T22:33:06.953Z</time>
      </trkpt>
      <trkpt lat="51.436070" lon="5.362380">
        <ele>20.367397</ele>
        <time>2024-07-19T22:33:08.961Z</time>
      </trkpt>
      <trkpt lat="51.435522" lon="5.362343">
        <ele>20.324900</ele>
        <time>2024-07-19T22:33:16.858Z</time>
      </trkpt>
      <trkpt lat="51.435339" lon="5.362331">
        <ele>20.309404</ele>
        <time>2024-07-19T22:33:19.443Z</time>
      </trkpt>
      <trkpt lat="51.435176" lon="5.362319">
        <ele>20.295598</ele>
        <time>2024-07-19T22:33:21.825Z</time>
      </trkpt>
      <trkpt lat="51.435102" lon="5.362224">
        <ele>20.287579</ele>
        <time>2024-07-19T22:33:23.176Z</time>
      </trkpt>
      <trkpt lat="51.434789" lon="5.362067">
        <ele>20.259832</ele>
        <time>2024-07-19T22:33:27.859Z</time>
      </trkpt>
      <trkpt lat="51.434752" lon="5.361971">
        <ele>20.253879</ele>
        <time>2024-07-19T22:33:28.840Z</time>
      </trkpt>
      <trkpt lat="51.434700" lon="5.361898">
        <ele>20.248032</ele>
        <time>2024-07-19T22:33:29.807Z</time>
      </trkpt>
      <trkpt lat="51.434618" lon="5.361844">
        <ele>20.240533</ele>
        <time>2024-07-19T22:33:31.067Z</time>
      </trkpt>
      <trkpt lat="51.434545" lon="5.361839">
        <ele>20.234351</ele>
        <time>2024-07-19T22:33:32.149Z</time>
      </trkpt>
      <trkpt lat="51.434483" lon="5.361863">
        <ele>20.228954</ele>
        <time>2024-07-19T22:33:33.073Z</time>
      </trkpt>
      <trkpt lat="51.434363" lon="5.362032">
        <ele>20.215444</ele>
        <time>2024-07-19T22:33:35.368Z</time>
      </trkpt>
      <trkpt lat="51.434338" lon="5.362136">
        <ele>20.211277</ele>
        <time>2024-07-19T22:33:36.403Z</time>
      </trkpt>
      <trkpt lat="51.434334" lon="5.362236">
        <ele>20.212418</ele>
        <time>2024-07-19T22:33:37.349Z</time>
      </trkpt>
      <trkpt lat="51.434350" lon="5.362340">
        <ele>20.213638</ele>
        <time>2024-07-19T22:33:38.331Z</time>
      </trkpt>
      <trkpt lat="51.434458" lon="5.362556">
        <ele>20.216791</ele>
        <time>2024-07-19T22:33:40.865Z</time>
      </trkpt>
      <trkpt lat="51.434412" lon="5.369414">
        <ele>20.284394</ele>
        <time>2024-07-19T22:34:45.022Z</time>
      </trkpt>
      <trkpt lat="51.434324" lon="5.369539">
        <ele>20.285303</ele>
        <time>2024-07-19T22:34:46.766Z</time>
      </trkpt>
      <trkpt lat="51.434285" lon="5.369702">
        <ele>20.286145</ele>
        <time>2024-07-19T22:34:48.398Z</time>
      </trkpt>
      <trkpt lat="51.434284" lon="5.369785">
        <ele>20.286545</ele>
        <time>2024-07-19T22:34:49.162Z</time>
      </trkpt>
      <trkpt lat="51.434321" lon="5.369956">
        <ele>20.287418</ele>
        <time>2024-07-19T22:34:50.818Z</time>
      </trkpt>
      <trkpt lat="51.434403" lon="5.370081">
        <ele>20.288293</ele>
        <time>2024-07-19T22:34:52.503Z</time>
      </trkpt>
      <trkpt lat="51.434362" lon="5.376920">
        <ele>20.235253</ele>
        <time>2024-07-19T22:35:55.283Z</time>
      </trkpt>
      <trkpt lat="51.434258" lon="5.377075">
        <ele>20.243265</ele>
        <time>2024-07-19T22:35:57.445Z</time>
      </trkpt>
      <trkpt lat="51.434230" lon="5.377196">
        <ele>20.247806</ele>
        <time>2024-07-19T22:35:58.646Z</time>
      </trkpt>
      <trkpt lat="51.434227" lon="5.377310">
        <ele>20.251821</ele>
        <time>2024-07-19T22:35:59.693Z</time>
      </trkpt>
      <trkpt lat="51.434269" lon="5.377463">
        <ele>20.257703</ele>
        <time>2024-07-19T22:36:01.226Z</time>
      </trkpt>
      <trkpt lat="51.434354" lon="5.377606">
        <ele>20.264655</ele>
        <time>2024-07-19T22:36:03.104Z</time>
      </trkpt>
      <trkpt lat="51.434370" lon="5.378196">
        <ele>20.285433</ele>
        <time>2024-07-19T22:36:08.615Z</time>
      </trkpt>
      <trkpt lat="51.434444" lon="5.378602">
        <ele>20.300316</ele>
        <time>2024-07-19T22:36:12.533Z</time>
      </trkpt>
      <trkpt lat="51.435626" lon="5.381973">
        <ele>20.465323</ele>
        <time>2024-07-19T22:36:48.907Z</time>
      </trkpt>
      <trkpt lat="51.435611" lon="5.382074">
        <ele>20.475895</ele>
        <time>2024-07-19T22:36:50.252Z</time>
      </trkpt>
      <trkpt lat="51.435624" lon="5.382210">
        <ele>20.489904</ele>
        <time>2024-07-19T22:36:52.041Z</time>
      </trkpt>
      <trkpt lat="51.435655" lon="5.382296">
        <ele>20.500019</ele>
        <time>2024-07-19T22:36:53.383Z</time>
      </trkpt>
      <trkpt lat="51.435724" lon="5.382382">
        <ele>20.514291</ele>
        <time>2024-07-19T22:36:55.240Z</time>
      </trkpt>
      <trkpt lat="51.435771" lon="5.382406">
        <ele>20.522347</ele>
        <time>2024-07-19T22:36:56.275Z</time>
      </trkpt>
      <trkpt lat="51.436462" lon="5.384353">
        <ele>20.689400</ele>
        <time>2024-07-19T22:37:18.096Z</time>
      </trkpt>
      <trkpt lat="51.436884" lon="5.385558">
        <ele>20.643859</ele>
        <time>2024-07-19T22:37:30.432Z</time>
      </trkpt>
      <trkpt lat="51.437606" lon="5.387594">
        <ele>20.546674</ele>
        <time>2024-07-19T22:37:51.309Z</time>
      </trkpt>
      <trkpt lat="51.437713" lon="5.387919">
        <ele>20.528874</ele>
        <time>2024-07-19T22:37:54.645Z</time>
      </trkpt>
      <trkpt lat="51.437776" lon="5.388272">
        <ele>20.511092</ele>
        <time>2024-07-19T22:37:57.953Z</time>
      </trkpt>
      <trkpt lat="51.437786" lon="5.388459">
        <ele>20.502002</ele>
        <time>2024-07-19T22:37:59.696Z</time>
      </trkpt>
      <trkpt lat="51.437739" lon="5.388940">
        <ele>20.478423</ele>
        <time>2024-07-19T22:38:04.257Z</time>
      </trkpt>
      <trkpt lat="51.437607" lon="5.389356">
        <ele>20.463857</ele>
        <time>2024-07-19T22:38:08.732Z</time>
      </trkpt>
      <trkpt lat="51.437086" lon="5.390252">
        <ele>20.439326</ele>
        <time>2024-07-19T22:38:20.462Z</time>
      </trkpt>
      <trkpt lat="51.436542" lon="5.391178">
        <ele>20.413851</ele>
        <time>2024-07-19T22:38:31.690Z</time>
      </trkpt>
      <trkpt lat="51.435524" lon="5.392730">
        <ele>20.169692</ele>
        <time>2024-07-19T22:38:51.675Z</time>
      </trkpt>
      <trkpt lat="51.434888" lon="5.393696">
        <ele>20.057292</ele>
        <time>2024-07-19T22:39:03.968Z</time>
      </trkpt>
      <trkpt lat="51.434790" lon="5.393678">
        <ele>20.050339</ele>
        <time>2024-07-19T22:39:05.313Z</time>
      </trkpt>
      <trkpt lat="51.434696" lon="5.393726">
        <ele>20.043386</ele>
        <time>2024-07-19T22:39:06.670Z</time>
      </trkpt>
      <trkpt lat="51.434660" lon="5.393765">
        <ele>20.040324</ele>
        <time>2024-07-19T22:39:07.275Z</time>
      </trkpt>
      <trkpt lat="51.434621" lon="5.393835">
        <ele>20.036198</ele>
        <time>2024-07-19T22:39:08.110Z</time>
      </trkpt>
      <trkpt lat="51.434596" lon="5.393908">
        <ele>20.032538</ele>
        <time>2024-07-19T22:39:08.870Z</time>
      </trkpt>
      <trkpt lat="51.434578" lon="5.394020">
        <ele>20.027456</ele>
        <time>2024-07-19T22:39:09.890Z</time>
      </trkpt>
      <trkpt lat="51.434589" lon="5.394171">
        <ele>20.020776</ele>
        <time>2024-07-19T22:39:11.239Z</time>
      </trkpt>
      <trkpt lat="51.434458" lon="5.394372">
        <ele>20.007998</ele>
        <time>2024-07-19T22:39:14.907Z</time>
      </trkpt>
      <trkpt lat="51.434332" lon="5.394662">
        <ele>19.992465</ele>
        <time>2024-07-19T22:39:19.371Z</time>
      </trkpt>
      <trkpt lat="51.434061" lon="5.395864">
        <ele>19.992101</ele>
        <time>2024-07-19T22:39:35.756Z</time>
      </trkpt>
      <trkpt lat="51.433603" lon="5.398001">
        <ele>20.127950</ele>
        <time>2024-07-19T22:40:04.652Z</time>
      </trkpt>
      <trkpt lat="51.432906" lon="5.401248">
        <ele>20.502702</ele>
        <time>2024-07-19T22:40:49.791Z</time>
      </trkpt>
      <trkpt lat="51.432696" lon="5.402301">
        <ele>20.612059</ele>
        <time>2024-07-19T22:41:04.374Z</time>
      </trkpt>
      <trkpt lat="51.432702" lon="5.402846">
        <ele>20.665976</ele>
        <time>2024-07-19T22:41:11.262Z</time>
      </trkpt>
      <trkpt lat="51.432710" lon="5.403086">
        <ele>20.689749</ele>
        <time>2024-07-19T22:41:14.426Z</time>
      </trkpt>
      <trkpt lat="51.432644" lon="5.403165">
        <ele>20.702815</ele>
        <time>2024-07-19T22:41:16.022Z</time>
      </trkpt>
      <trkpt lat="51.432609" lon="5.403261">
        <ele>20.713816</ele>
        <time>2024-07-19T22:41:17.455Z</time>
      </trkpt>
      <trkpt lat="51.431787" lon="5.403389">
        <ele>20.698883</ele>
        <time>2024-07-19T22:41:30.194Z</time>
      </trkpt>
      <trkpt lat="51.431672" lon="5.403398">
        <ele>20.691075</ele>
        <time>2024-07-19T22:41:31.940Z</time>
      </trkpt>
      <trkpt lat="51.431574" lon="5.403414">
        <ele>20.684395</ele>
        <time>2024-07-19T22:41:33.336Z</time>
      </trkpt>
      <trkpt lat="51.430967" lon="5.403505">
        <ele>20.643052</ele>
        <time>2024-07-19T22:41:42.197Z</time>
      </trkpt>
      <trkpt lat="51.430536" lon="5.403344">
        <ele>20.586357</ele>
        <time>2024-07-19T22:41:48.161Z</time>
      </trkpt>
      <trkpt lat="51.430319" lon="5.403321">
        <ele>20.519650</ele>
        <time>2024-07-19T22:41:51.111Z</time>
      </trkpt>
      <trkpt lat="51.430089" lon="5.403333">
        <ele>20.449063</ele>
        <time>2024-07-19T22:41:54.167Z</time>
      </trkpt>
      <trkpt lat="51.429982" lon="5.403366">
        <ele>20.415641</ele>
        <time>2024-07-19T22:41:55.681Z</time>
      </trkpt>
      <trkpt lat="51.429291" lon="5.403661">
        <ele>20.196306</ele>
        <time>2024-07-19T22:42:05.629Z</time>
      </trkpt>
      <trkpt lat="51.428959" lon="5.403762">
        <ele>20.092654</ele>
        <time>2024-07-19T22:42:10.256Z</time>
      </trkpt>
      <trkpt lat="51.428580" lon="5.403857">
        <ele>20.046679</ele>
        <time>2024-07-19T22:42:15.497Z</time>
      </trkpt>
      <trkpt lat="51.428366" lon="5.403806">
        <ele>20.030972</ele>
        <time>2024-07-19T22:42:18.483Z</time>
      </trkpt>
      <trkpt lat="51.428162" lon="5.403703">
        <ele>20.015445</ele>
        <time>2024-07-19T22:42:21.454Z</time>
      </trkpt>
      <trkpt lat="51.427975" lon="5.403540">
        <ele>19.999994</ele>
        <time>2024-07-19T22:42:24.521Z</time>
      </trkpt>
      <trkpt lat="51.427640" lon="5.403097">
        <ele>19.968472</ele>
        <time>2024-07-19T22:42:31.013Z</time>
      </trkpt>
      <trkpt lat="51.427561" lon="5.403062">
        <ele>19.962522</ele>
        <time>2024-07-19T22:42:32.315Z</time>
      </trkpt>
      <trkpt lat="51.427492" lon="5.403032">
        <ele>19.957332</ele>
        <time>2024-07-19T22:42:33.466Z</time>
      </trkpt>
      <trkpt lat="51.427439" lon="5.403023">
        <ele>19.953463</ele>
        <time>2024-07-19T22:42:34.308Z</time>
      </trkpt>
      <trkpt lat="51.427406" lon="5.403032">
        <ele>19.951032</ele>
        <time>2024-07-19T22:42:34.839Z</time>
      </trkpt>
      <trkpt lat="51.427320" lon="5.403056">
        <ele>19.944695</ele>
        <time>2024-07-19T22:42:36.203Z</time>
      </trkpt>
      <trkpt lat="51.427138" lon="5.403173">
        <ele>19.938327</ele>
        <time>2024-07-19T22:42:39.326Z</time>
      </trkpt>
      <trkpt lat="51.426387" lon="5.403496">
        <ele>19.938327</ele>
        <time>2024-07-19T22:42:51.503Z</time>
      </trkpt>
      <trkpt lat="51.426295" lon="5.403472">
        <ele>19.938327</ele>
        <time>2024-07-19T22:42:52.965Z</time>
      </trkpt>
      <trkpt lat="51.426119" lon="5.403316">
        <ele>19.938327</ele>
        <time>2024-07-19T22:42:56.103Z</time>
      </trkpt>
      <trkpt lat="51.426036" lon="5.403274">
        <ele>19.938327</ele>
        <time>2024-07-19T22:42:57.473Z</time>
      </trkpt>
      <trkpt lat="51.425990" lon="5.403249">
        <ele>19.938327</ele>
        <time>2024-07-19T22:42:58.247Z</time>
      </trkpt>
      <trkpt lat="51.425907" lon="5.403202">
        <ele>19.938327</ele>
        <time>2024-07-19T22:42:59.624Z</time>
      </trkpt>
      <trkpt lat="51.425548" lon="5.403120">
        <ele>19.938327</ele>
        <time>2024-07-19T22:43:05.298Z</time>
      </trkpt>
      <trkpt lat="51.425068" lon="5.403313">
        <ele>19.938327</ele>
        <time>2024-07-19T22:43:12.900Z</time>
      </trkpt>
      <trkpt lat="51.424902" lon="5.403368">
        <ele>19.938327</ele>
        <time>2024-07-19T22:43:15.507Z</time>
      </trkpt>
    </trkseg>
  </trk>
</gpx>